<?xml version='1.0' encoding='UTF-8'?><gpx version="1.1" creator="JPX - https://github.com/jenetics/jpx" xmlns="http://www.topografix.com/GPX/1/1"><trk><trkseg><trkpt lat="41.1466419105024" lon="0.7871718273476696"><ele>283.0</ele><time>2026-04-15T16:15:06Z</time></trkpt><trkpt lat="41.146633805730964" lon="0.7870721428379538"><ele>283.0</ele><time>2026-04-15T16:15:08Z</time></trkpt><trkpt lat="41.14663708604904" lon="0.7869683869684999"><ele>283.0</ele><time>2026-04-15T16:15:11Z</time></trkpt><trkpt lat="41.146623999326735" lon="0.7868363588629455"><ele>283.0</ele><time>2026-04-15T16:15:13Z</time></trkpt><trkpt lat="41.146610425948296" lon="0.786736756453741"><ele>283.0</ele><time>2026-04-15T16:15:15Z</time></trkpt><trkpt lat="41.14659548540422" lon="0.7866389967695308"><ele>283.0</ele><time>2026-04-15T16:15:15.999Z</time></trkpt><trkpt lat="41.1465802220315" lon="0.7865225540241091"><ele>282.8</ele><time>2026-04-15T16:15:17.999Z</time></trkpt><trkpt lat="41.14655733850998" lon="0.7864243128057413"><ele>282.6</ele><time>2026-04-15T16:15:20.999Z</time></trkpt><trkpt lat="41.14653641741345" lon="0.7863286865089993"><ele>282.4</ele><time>2026-04-15T16:15:22.999Z</time></trkpt><trkpt lat="41.146499964062606" lon="0.7861449642799265"><ele>282.2</ele><time>2026-04-15T16:15:24.999Z</time></trkpt><trkpt lat="41.14647357766583" lon="0.7859911573562461"><ele>282.0</ele><time>2026-04-15T16:15:25.999Z</time></trkpt><trkpt lat="41.14644262079179" lon="0.7858402232855045"><ele>285.25</ele><time>2026-04-15T16:15:26.999Z</time></trkpt><trkpt lat="41.14640161631546" lon="0.7856819100170457"><ele>288.5</ele><time>2026-04-15T16:15:27.999Z</time></trkpt><trkpt lat="41.14634991696421" lon="0.7855004861796611"><ele>291.75</ele><time>2026-04-15T16:15:28.999Z</time></trkpt><trkpt lat="41.14630784454925" lon="0.7853443341668646"><ele>295.0</ele><time>2026-04-15T16:15:29.999Z</time></trkpt><trkpt lat="41.14626675727312" lon="0.7852176284726908"><ele>295.2</ele><time>2026-04-15T16:15:30.999Z</time></trkpt><trkpt lat="41.146172629758475" lon="0.7851015947499919"><ele>295.4</ele><time>2026-04-15T16:15:31.999Z</time></trkpt><trkpt lat="41.146089362200456" lon="0.7850004556921899"><ele>295.6</ele><time>2026-04-15T16:15:32.999Z</time></trkpt><trkpt lat="41.14603119361681" lon="0.7848785176920731"><ele>295.8</ele><time>2026-04-15T16:15:33.999Z</time></trkpt><trkpt lat="41.146014923572686" lon="0.7847594138675184"><ele>296.0</ele><time>2026-04-15T16:15:34.999Z</time></trkpt><trkpt lat="41.14605356546727" lon="0.784615518724321"><ele>296.0</ele><time>2026-04-15T16:15:35.999Z</time></trkpt><trkpt lat="41.1460154899745" lon="0.7844817111888269"><ele>296.0</ele><time>2026-04-15T16:15:36.999Z</time></trkpt><trkpt lat="41.14597675047546" lon="0.7843869361257355"><ele>296.0</ele><time>2026-04-15T16:15:37.999Z</time></trkpt><trkpt lat="41.14593209465119" lon="0.7842494221384891"><ele>296.0</ele><time>2026-04-15T16:15:38.999Z</time></trkpt><trkpt lat="41.14589987963555" lon="0.7840866179489152"><ele>296.0</ele><time>2026-04-15T16:15:39.999Z</time></trkpt><trkpt lat="41.14588540457302" lon="0.7839431437273998"><ele>293.75</ele><time>2026-04-15T16:15:40.999Z</time></trkpt><trkpt lat="41.14587946389415" lon="0.7838007748424581"><ele>291.5</ele><time>2026-04-15T16:15:41.999Z</time></trkpt><trkpt lat="41.145887007493194" lon="0.7836603145423607"><ele>289.25</ele><time>2026-04-15T16:15:42.999Z</time></trkpt><trkpt lat="41.14590132370108" lon="0.7834956718007978"><ele>287.0</ele><time>2026-04-15T16:15:43.999Z</time></trkpt><trkpt lat="41.145919855647755" lon="0.7833108004300775"><ele>285.25</ele><time>2026-04-15T16:15:44.999Z</time></trkpt><trkpt lat="41.145944673633615" lon="0.7830991735906956"><ele>283.5</ele><time>2026-04-15T16:15:45.999Z</time></trkpt><trkpt lat="41.1459569286426" lon="0.7829171114292082"><ele>281.75</ele><time>2026-04-15T16:15:46.999Z</time></trkpt><trkpt lat="41.146001762626994" lon="0.782775968187083"><ele>280.0</ele><time>2026-04-15T16:15:47.999Z</time></trkpt><trkpt lat="41.146063355028666" lon="0.782679914991289"><ele>280.0</ele><time>2026-04-15T16:15:48.999Z</time></trkpt><trkpt lat="41.14612565746165" lon="0.7825639206570779"><ele>280.0</ele><time>2026-04-15T16:15:49.999Z</time></trkpt><trkpt lat="41.14621968411969" lon="0.7824519093736781"><ele>280.0</ele><time>2026-04-15T16:15:50.999Z</time></trkpt><trkpt lat="41.14628762257918" lon="0.7823324536865351"><ele>280.0</ele><time>2026-04-15T16:15:51.999Z</time></trkpt><trkpt lat="41.146334572727305" lon="0.7821759891230459"><ele>280.0</ele><time>2026-04-15T16:15:52.999Z</time></trkpt><trkpt lat="41.14637745413604" lon="0.7820014664594648"><ele>280.0</ele><time>2026-04-15T16:15:53.999Z</time></trkpt><trkpt lat="41.14641815443787" lon="0.7818178262556517"><ele>280.0</ele><time>2026-04-15T16:15:54.999Z</time></trkpt><trkpt lat="41.14645942616604" lon="0.7816289131022885"><ele>280.0</ele><time>2026-04-15T16:15:55.999Z</time></trkpt><trkpt lat="41.146497235506075" lon="0.7814396066812651"><ele>281.75</ele><time>2026-04-15T16:15:56.999Z</time></trkpt><trkpt lat="41.14647555413707" lon="0.7812714975573648"><ele>283.5</ele><time>2026-04-15T16:15:57.999Z</time></trkpt><trkpt lat="41.146470578298896" lon="0.7811251075610033"><ele>285.25</ele><time>2026-04-15T16:15:58.999Z</time></trkpt><trkpt lat="41.146508831319096" lon="0.7809462831398952"><ele>287.0</ele><time>2026-04-15T16:15:59.999Z</time></trkpt><trkpt lat="41.14654065106685" lon="0.780738203858882"><ele>285.33333333333337</ele><time>2026-04-15T16:16:00.999Z</time></trkpt><trkpt lat="41.146575316021796" lon="0.7805119898363334"><ele>283.6666666666667</ele><time>2026-04-15T16:16:01.999Z</time></trkpt><trkpt lat="41.146599132246244" lon="0.7802878424758561"><ele>282.0</ele><time>2026-04-15T16:16:02.999Z</time></trkpt><trkpt lat="41.14661570096227" lon="0.7800822847393556"><ele>282.0</ele><time>2026-04-15T16:16:03.999Z</time></trkpt><trkpt lat="41.14667000364992" lon="0.7799202252105875"><ele>282.0</ele><time>2026-04-15T16:16:04.999Z</time></trkpt><trkpt lat="41.14674331647928" lon="0.7797620764578285"><ele>282.0</ele><time>2026-04-15T16:16:05.999Z</time></trkpt><trkpt lat="41.14682509736172" lon="0.7796058688572337"><ele>282.0</ele><time>2026-04-15T16:16:06.998Z</time></trkpt><trkpt lat="41.146910599287715" lon="0.779473100840854"><ele>282.0</ele><time>2026-04-15T16:16:07.998Z</time></trkpt><trkpt lat="41.14699057990031" lon="0.7793777095193054"><ele>282.0</ele><time>2026-04-15T16:16:08.998Z</time></trkpt><trkpt lat="41.14707559121201" lon="0.779289034081201"><ele>282.0</ele><time>2026-04-15T16:16:09.998Z</time></trkpt><trkpt lat="41.14716333964937" lon="0.7791889131567001"><ele>282.0</ele><time>2026-04-15T16:16:10.998Z</time></trkpt><trkpt lat="41.147216363293424" lon="0.7790525376386207"><ele>282.0</ele><time>2026-04-15T16:16:11.998Z</time></trkpt><trkpt lat="41.14724983801145" lon="0.7788998045649093"><ele>284.5</ele><time>2026-04-15T16:16:12.998Z</time></trkpt><trkpt lat="41.14726567345341" lon="0.7787072061444734"><ele>287.0</ele><time>2026-04-15T16:16:13.998Z</time></trkpt><trkpt lat="41.147292675974974" lon="0.7785137239081465"><ele>289.5</ele><time>2026-04-15T16:16:14.998Z</time></trkpt><trkpt lat="41.14732389505129" lon="0.7783189070301257"><ele>292.0</ele><time>2026-04-15T16:16:15.998Z</time></trkpt><trkpt lat="41.14733160596303" lon="0.7781308627115862"><ele>293.4</ele><time>2026-04-15T16:16:16.998Z</time></trkpt><trkpt lat="41.147281498054234" lon="0.7780027692074256"><ele>294.79999999999995</ele><time>2026-04-15T16:16:17.998Z</time></trkpt><trkpt lat="41.147185416388716" lon="0.7779191318139379"><ele>296.2</ele><time>2026-04-15T16:16:18.998Z</time></trkpt><trkpt lat="41.1470893928233" lon="0.7778436723608954"><ele>297.59999999999997</ele><time>2026-04-15T16:16:19.998Z</time></trkpt><trkpt lat="41.14705550750734" lon="0.7777073607549702"><ele>299.0</ele><time>2026-04-15T16:16:20.998Z</time></trkpt><trkpt lat="41.14701655029758" lon="0.777565760567698"><ele>299.5</ele><time>2026-04-15T16:16:21.998Z</time></trkpt><trkpt lat="41.1469957292317" lon="0.7774045482531343"><ele>300.0</ele><time>2026-04-15T16:16:22.998Z</time></trkpt><trkpt lat="41.146971052255026" lon="0.7772275345582969"><ele>300.5</ele><time>2026-04-15T16:16:23.998Z</time></trkpt><trkpt lat="41.14699435738154" lon="0.777063842827907"><ele>301.0</ele><time>2026-04-15T16:16:24.998Z</time></trkpt><trkpt lat="41.146992226740345" lon="0.7769243978336712"><ele>300.0</ele><time>2026-04-15T16:16:25.998Z</time></trkpt><trkpt lat="41.14697893880254" lon="0.7768356247735688"><ele>299.0</ele><time>2026-04-15T16:16:26.998Z</time></trkpt><trkpt lat="41.14678689600582" lon="0.7767694452386654"><ele>298.0</ele><time>2026-04-15T16:16:28.998Z</time></trkpt><trkpt lat="41.146694435163326" lon="0.7767290036830111"><ele>297.0</ele><time>2026-04-15T16:16:29.998Z</time></trkpt><trkpt lat="41.14660704307264" lon="0.7766829296998677"><ele>297.0</ele><time>2026-04-15T16:16:30.998Z</time></trkpt><trkpt lat="41.14651338339267" lon="0.7766284563310961"><ele>297.0</ele><time>2026-04-15T16:16:31.998Z</time></trkpt><trkpt lat="41.14641773119352" lon="0.7765726433015461"><ele>297.0</ele><time>2026-04-15T16:16:32.998Z</time></trkpt><trkpt lat="41.1463431964681" lon="0.7765553957019846"><ele>297.0</ele><time>2026-04-15T16:16:33.998Z</time></trkpt><trkpt lat="41.14627763195803" lon="0.7765419535220872"><ele>297.0</ele><time>2026-04-15T16:16:34.998Z</time></trkpt><trkpt lat="41.14619899906958" lon="0.7765396149219222"><ele>297.0</ele><time>2026-04-15T16:16:36.998Z</time></trkpt><trkpt lat="41.14619498089655" lon="0.7766237357907542"><ele>297.0</ele><time>2026-04-15T16:16:41.998Z</time></trkpt><trkpt lat="41.14628725491854" lon="0.7765586272460978"><ele>297.0</ele><time>2026-04-15T16:16:44.998Z</time></trkpt><trkpt lat="41.14646944000486" lon="0.7766299105410003"><ele>297.0</ele><time>2026-04-15T16:16:48.998Z</time></trkpt><trkpt lat="41.14657540087606" lon="0.7766876236886662"><ele>297.0</ele><time>2026-04-15T16:16:49.999Z</time></trkpt><trkpt lat="41.14668409497287" lon="0.77674327187337"><ele>297.0</ele><time>2026-04-15T16:16:50.999Z</time></trkpt><trkpt lat="41.14678567471477" lon="0.7767941501731006"><ele>297.0</ele><time>2026-04-15T16:16:51.999Z</time></trkpt><trkpt lat="41.14688715281454" lon="0.7768186204922273"><ele>297.0</ele><time>2026-04-15T16:16:52.999Z</time></trkpt><trkpt lat="41.14694956150048" lon="0.776914059957467"><ele>297.0</ele><time>2026-04-15T16:16:53.999Z</time></trkpt><trkpt lat="41.14697860624478" lon="0.7770346552154656"><ele>297.0</ele><time>2026-04-15T16:16:54.999Z</time></trkpt><trkpt lat="41.14695557188868" lon="0.777169246805843"><ele>297.5</ele><time>2026-04-15T16:16:55.999Z</time></trkpt><trkpt lat="41.14693479272435" lon="0.7773043848399307"><ele>298.0</ele><time>2026-04-15T16:16:56.999Z</time></trkpt><trkpt lat="41.14695246026735" lon="0.7774621717059894"><ele>298.5</ele><time>2026-04-15T16:16:57.999Z</time></trkpt><trkpt lat="41.14698396633404" lon="0.777618446460221"><ele>299.0</ele><time>2026-04-15T16:16:58.999Z</time></trkpt><trkpt lat="41.14701852180209" lon="0.7777621960529556"><ele>299.0</ele><time>2026-04-15T16:16:59.999Z</time></trkpt><trkpt lat="41.14708059601341" lon="0.7778829715855115"><ele>299.0</ele><time>2026-04-15T16:17:00.999Z</time></trkpt><trkpt lat="41.14715538770902" lon="0.7779788687265786"><ele>299.0</ele><time>2026-04-15T16:17:01.999Z</time></trkpt><trkpt lat="41.147239351214814" lon="0.7780754260314444"><ele>299.0</ele><time>2026-04-15T16:17:02.999Z</time></trkpt><trkpt lat="41.14729526545409" lon="0.7781824758857186"><ele>299.0</ele><time>2026-04-15T16:17:03.999Z</time></trkpt><trkpt lat="41.14730324170149" lon="0.7783220232393558"><ele>299.0</ele><time>2026-04-15T16:17:04.999Z</time></trkpt><trkpt lat="41.147265956855264" lon="0.7784985576713023"><ele>299.0</ele><time>2026-04-15T16:17:05.999Z</time></trkpt><trkpt lat="41.147222748787584" lon="0.7786948845282213"><ele>299.0</ele><time>2026-04-15T16:17:06.999Z</time></trkpt><trkpt lat="41.147192756719015" lon="0.7789290602254446"><ele>297.25</ele><time>2026-04-15T16:17:07.999Z</time></trkpt><trkpt lat="41.14716044886441" lon="0.7790859814951897"><ele>295.5</ele><time>2026-04-15T16:17:08.999Z</time></trkpt><trkpt lat="41.14711597060873" lon="0.7792163114744077"><ele>293.75</ele><time>2026-04-15T16:17:09.999Z</time></trkpt><trkpt lat="41.14703115829035" lon="0.7793130977245162"><ele>292.0</ele><time>2026-04-15T16:17:10.999Z</time></trkpt><trkpt lat="41.14691914137354" lon="0.7793878872673794"><ele>289.5</ele><time>2026-04-15T16:17:11.999Z</time></trkpt><trkpt lat="41.14682083553086" lon="0.7795003970332013"><ele>287.0</ele><time>2026-04-15T16:17:12.999Z</time></trkpt><trkpt lat="41.14673247828607" lon="0.779649276188005"><ele>284.5</ele><time>2026-04-15T16:17:13.999Z</time></trkpt><trkpt lat="41.14664972986947" lon="0.7798173309921459"><ele>282.0</ele><time>2026-04-15T16:17:14.999Z</time></trkpt><trkpt lat="41.146576543367054" lon="0.7800322885232479"><ele>287.6666666666667</ele><time>2026-04-15T16:17:15.999Z</time></trkpt><trkpt lat="41.14653869713796" lon="0.7802406910779229"><ele>293.33333333333337</ele><time>2026-04-15T16:17:16.999Z</time></trkpt><trkpt lat="41.14653417663759" lon="0.7804736410799651"><ele>299.0</ele><time>2026-04-15T16:17:17.999Z</time></trkpt><trkpt lat="41.14650641485954" lon="0.7807091569561289"><ele>299.0</ele><time>2026-04-15T16:17:18.999Z</time></trkpt><trkpt lat="41.14647976289858" lon="0.7809411905016947"><ele>299.0</ele><time>2026-04-15T16:17:19.999Z</time></trkpt><trkpt lat="41.146465731113764" lon="0.7811460774560922"><ele>299.0</ele><time>2026-04-15T16:17:20.999Z</time></trkpt><trkpt lat="41.146458369973914" lon="0.7813136746138226"><ele>296.59999999999997</ele><time>2026-04-15T16:17:21.999Z</time></trkpt><trkpt lat="41.146461702095195" lon="0.7814439943756525"><ele>294.2</ele><time>2026-04-15T16:17:22.999Z</time></trkpt><trkpt lat="41.14644636919114" lon="0.7815631775749845"><ele>291.79999999999995</ele><time>2026-04-15T16:17:23.999Z</time></trkpt><trkpt lat="41.14642144661974" lon="0.7816916576485983"><ele>289.4</ele><time>2026-04-15T16:17:24.999Z</time></trkpt><trkpt lat="41.14640427771786" lon="0.7818561411157716"><ele>287.0</ele><time>2026-04-15T16:17:25.999Z</time></trkpt><trkpt lat="41.14635022994326" lon="0.7820294728913256"><ele>285.25</ele><time>2026-04-15T16:17:26.999Z</time></trkpt><trkpt lat="41.146303872553226" lon="0.782216522279925"><ele>283.5</ele><time>2026-04-15T16:17:27.999Z</time></trkpt><trkpt lat="41.14625591451872" lon="0.7823760571248761"><ele>281.75</ele><time>2026-04-15T16:17:28.999Z</time></trkpt><trkpt lat="41.146192363178095" lon="0.782466944825101"><ele>280.0</ele><time>2026-04-15T16:17:29.999Z</time></trkpt><trkpt lat="41.14612212366099" lon="0.782536826163319"><ele>280.0</ele><time>2026-04-15T16:17:30.999Z</time></trkpt><trkpt lat="41.14606307580727" lon="0.7826460507019822"><ele>280.0</ele><time>2026-04-15T16:17:31.999Z</time></trkpt><trkpt lat="41.14599315423631" lon="0.7827324999679471"><ele>280.0</ele><time>2026-04-15T16:17:32.999Z</time></trkpt><trkpt lat="41.14594592796539" lon="0.7828326637969559"><ele>280.0</ele><time>2026-04-15T16:17:33.999Z</time></trkpt><trkpt lat="41.145919587831166" lon="0.7829657692139008"><ele>280.0</ele><time>2026-04-15T16:17:34.999Z</time></trkpt><trkpt lat="41.14589990430844" lon="0.7831463895022875"><ele>279.3333333333333</ele><time>2026-04-15T16:17:35.999Z</time></trkpt><trkpt lat="41.145878438099935" lon="0.7833594041201336"><ele>278.6666666666667</ele><time>2026-04-15T16:17:36.999Z</time></trkpt><trkpt lat="41.1458572533074" lon="0.783555262580332"><ele>278.0</ele><time>2026-04-15T16:17:37.999Z</time></trkpt><trkpt lat="41.1458517991417" lon="0.7837584416539202"><ele>280.25</ele><time>2026-04-15T16:17:38.999Z</time></trkpt><trkpt lat="41.145854969586416" lon="0.7839521482474832"><ele>282.5</ele><time>2026-04-15T16:17:39.999Z</time></trkpt><trkpt lat="41.14587959282665" lon="0.7841588767127406"><ele>284.75</ele><time>2026-04-15T16:17:40.999Z</time></trkpt><trkpt lat="41.14592297377502" lon="0.7843404459514239"><ele>287.0</ele><time>2026-04-15T16:17:41.999Z</time></trkpt><trkpt lat="41.1459954529206" lon="0.7845110228027425"><ele>289.25</ele><time>2026-04-15T16:17:42.999Z</time></trkpt><trkpt lat="41.14603145552517" lon="0.7846626836316961"><ele>291.5</ele><time>2026-04-15T16:17:43.999Z</time></trkpt><trkpt lat="41.14602663284256" lon="0.7848125284293638"><ele>293.75</ele><time>2026-04-15T16:17:44.999Z</time></trkpt><trkpt lat="41.14604684616402" lon="0.7849697877565839"><ele>296.0</ele><time>2026-04-15T16:17:45.999Z</time></trkpt><trkpt lat="41.14611727082099" lon="0.7850812825178769"><ele>295.75</ele><time>2026-04-15T16:17:46.999Z</time></trkpt><trkpt lat="41.14620407480786" lon="0.785189681781568"><ele>295.5</ele><time>2026-04-15T16:17:47.999Z</time></trkpt><trkpt lat="41.14630259800793" lon="0.7853193723555062"><ele>295.25</ele><time>2026-04-15T16:17:48.999Z</time></trkpt><trkpt lat="41.14636459487285" lon="0.7854761547799267"><ele>295.0</ele><time>2026-04-15T16:17:49.999Z</time></trkpt><trkpt lat="41.14640976476381" lon="0.7856620016384454"><ele>295.0</ele><time>2026-04-15T16:17:50.999Z</time></trkpt><trkpt lat="41.146464833182996" lon="0.7858747785351448"><ele>295.0</ele><time>2026-04-15T16:17:51.999Z</time></trkpt><trkpt lat="41.14651252891585" lon="0.7860835700531251"><ele>295.0</ele><time>2026-04-15T16:17:52.999Z</time></trkpt><trkpt lat="41.146542932726014" lon="0.78629812910891"><ele>291.0</ele><time>2026-04-15T16:17:53.999Z</time></trkpt><trkpt lat="41.14657633830699" lon="0.7865288262293041"><ele>287.0</ele><time>2026-04-15T16:17:54.999Z</time></trkpt><trkpt lat="41.14660862266657" lon="0.7867562513001517"><ele>283.0</ele><time>2026-04-15T16:17:55.999Z</time></trkpt><trkpt lat="41.14663333473246" lon="0.7869969616005803"><ele>283.0</ele><time>2026-04-15T16:17:56.999Z</time></trkpt><trkpt lat="41.14664322022801" lon="0.7871874345263579"><ele>283.0</ele><time>2026-04-15T16:17:57.999Z</time></trkpt><trkpt lat="41.14662106304289" lon="0.7873442893273238"><ele>283.0</ele><time>2026-04-15T16:17:58.999Z</time></trkpt><trkpt lat="41.14659170784455" lon="0.7874917488676276"><ele>283.0</ele><time>2026-04-15T16:17:59.999Z</time></trkpt><trkpt lat="41.14659096914993" lon="0.7876335447211327"><ele>283.75</ele><time>2026-04-15T16:18:00.999Z</time></trkpt><trkpt lat="41.146681336587754" lon="0.7877707774388435"><ele>284.5</ele><time>2026-04-15T16:18:01.999Z</time></trkpt><trkpt lat="41.14671316012062" lon="0.7878990307174352"><ele>285.25</ele><time>2026-04-15T16:18:02.999Z</time></trkpt><trkpt lat="41.14674223059021" lon="0.7880409713899666"><ele>286.0</ele><time>2026-04-15T16:18:03.999Z</time></trkpt><trkpt lat="41.1467728138086" lon="0.7882137810394078"><ele>286.0</ele><time>2026-04-15T16:18:04.999Z</time></trkpt><trkpt lat="41.14678233272326" lon="0.7883976957511585"><ele>286.0</ele><time>2026-04-15T16:18:05.999Z</time></trkpt><trkpt lat="41.146792073805315" lon="0.7886004639083857"><ele>286.0</ele><time>2026-04-15T16:18:06.998Z</time></trkpt><trkpt lat="41.14680172717735" lon="0.7887869098020004"><ele>286.0</ele><time>2026-04-15T16:18:07.998Z</time></trkpt><trkpt lat="41.14686227996886" lon="0.7889623495124559"><ele>286.25</ele><time>2026-04-15T16:18:08.998Z</time></trkpt><trkpt lat="41.14693785548401" lon="0.789097469157973"><ele>286.5</ele><time>2026-04-15T16:18:09.998Z</time></trkpt><trkpt lat="41.14705205895397" lon="0.7892254115933839"><ele>286.75</ele><time>2026-04-15T16:18:10.998Z</time></trkpt><trkpt lat="41.14715345088631" lon="0.7893796619687702"><ele>287.0</ele><time>2026-04-15T16:18:11.998Z</time></trkpt><trkpt lat="41.147244551387736" lon="0.7895280248982524"><ele>287.4</ele><time>2026-04-15T16:18:12.998Z</time></trkpt><trkpt lat="41.14729682902157" lon="0.7896622309365993"><ele>287.79999999999995</ele><time>2026-04-15T16:18:13.998Z</time></trkpt><trkpt lat="41.14731851332434" lon="0.7898107184645417"><ele>288.2</ele><time>2026-04-15T16:18:14.998Z</time></trkpt><trkpt lat="41.14733168292401" lon="0.7899151280532105"><ele>288.59999999999997</ele><time>2026-04-15T16:18:15.998Z</time></trkpt><trkpt lat="41.14731856774012" lon="0.7900210586719532"><ele>289.0</ele><time>2026-04-15T16:18:17.998Z</time></trkpt><trkpt lat="41.14731809667085" lon="0.7899159930914152"><ele>289.0</ele><time>2026-04-15T16:18:21.998Z</time></trkpt><trkpt lat="41.14730348685624" lon="0.7897701611540275"><ele>289.0</ele><time>2026-04-15T16:18:23.998Z</time></trkpt><trkpt lat="41.147287126080045" lon="0.7896893543439166"><ele>289.0</ele><time>2026-04-15T16:18:24.998Z</time></trkpt><trkpt lat="41.14725175158382" lon="0.7895749001290888"><ele>289.0</ele><time>2026-04-15T16:18:25.998Z</time></trkpt><trkpt lat="41.14721084275895" lon="0.789480993194004"><ele>289.0</ele><time>2026-04-15T16:18:26.998Z</time></trkpt><trkpt lat="41.147168563454635" lon="0.7894111926439014"><ele>289.0</ele><time>2026-04-15T16:18:27.998Z</time></trkpt><trkpt lat="41.14710126656245" lon="0.789278362718986"><ele>288.59999999999997</ele><time>2026-04-15T16:18:29.998Z</time></trkpt><trkpt lat="41.1470417058444" lon="0.7891943879142762"><ele>288.2</ele><time>2026-04-15T16:18:30.998Z</time></trkpt><trkpt lat="41.14697268151602" lon="0.7890999599432308"><ele>287.79999999999995</ele><time>2026-04-15T16:18:31.998Z</time></trkpt><trkpt lat="41.14689757498901" lon="0.7890005059147773"><ele>287.4</ele><time>2026-04-15T16:18:32.998Z</time></trkpt><trkpt lat="41.146850790021155" lon="0.7888968582371714"><ele>287.0</ele><time>2026-04-15T16:18:33.998Z</time></trkpt><trkpt lat="41.14680830843612" lon="0.7888007394740993"><ele>287.0</ele><time>2026-04-15T16:18:34.998Z</time></trkpt><trkpt lat="41.14677349484161" lon="0.78868529785489"><ele>287.0</ele><time>2026-04-15T16:18:35.998Z</time></trkpt><trkpt lat="41.146775351292085" lon="0.7885382024876969"><ele>287.0</ele><time>2026-04-15T16:18:36.998Z</time></trkpt><trkpt lat="41.14678338639992" lon="0.7883796773605412"><ele>287.0</ele><time>2026-04-15T16:18:37.998Z</time></trkpt><trkpt lat="41.14677914638958" lon="0.7882449962941405"><ele>287.0</ele><time>2026-04-15T16:18:38.998Z</time></trkpt><trkpt lat="41.146769145172435" lon="0.788124686128857"><ele>286.83333333333337</ele><time>2026-04-15T16:18:39.998Z</time></trkpt><trkpt lat="41.146750562898816" lon="0.7880103785270223"><ele>286.6666666666667</ele><time>2026-04-15T16:18:40.998Z</time></trkpt><trkpt lat="41.146725626108086" lon="0.7878906643983977"><ele>286.5</ele><time>2026-04-15T16:18:41.998Z</time></trkpt><trkpt lat="41.1466987702636" lon="0.7877895471453856"><ele>286.3333333333333</ele><time>2026-04-15T16:18:42.998Z</time></trkpt><trkpt lat="41.14666145862986" lon="0.7877037943239716"><ele>286.16666666666663</ele><time>2026-04-15T16:18:43.998Z</time></trkpt><trkpt lat="41.14662525747939" lon="0.7876256674873896"><ele>286.0</ele><time>2026-04-15T16:18:44.998Z</time></trkpt><trkpt lat="41.146604529040864" lon="0.7874940435174197"><ele>285.40000000000003</ele><time>2026-04-15T16:18:46.998Z</time></trkpt><trkpt lat="41.146625885426786" lon="0.7873505479332222"><ele>284.8</ele><time>2026-04-15T16:18:48.998Z</time></trkpt><trkpt lat="41.146642339691105" lon="0.7872274683815372"><ele>284.20000000000005</ele><time>2026-04-15T16:18:50.998Z</time></trkpt><trkpt lat="41.14663466442741" lon="0.7870641820167524"><ele>283.6</ele><time>2026-04-15T16:18:52.998Z</time></trkpt><trkpt lat="41.14662663782376" lon="0.7869425172201062"><ele>283.0</ele><time>2026-04-15T16:18:54.998Z</time></trkpt><trkpt lat="41.1466116446242" lon="0.7868279755682139"><ele>282.8</ele><time>2026-04-15T16:18:56.999Z</time></trkpt><trkpt lat="41.14661795590635" lon="0.7866476439598135"><ele>282.6</ele><time>2026-04-15T16:18:58.999Z</time></trkpt><trkpt lat="41.146598240294345" lon="0.7865219735072153"><ele>282.4</ele><time>2026-04-15T16:18:59.999Z</time></trkpt><trkpt lat="41.1465785266155" lon="0.7864153247758215"><ele>282.2</ele><time>2026-04-15T16:19:01.999Z</time></trkpt><trkpt lat="41.14655688070463" lon="0.7862923239518832"><ele>282.0</ele><time>2026-04-15T16:19:03.999Z</time></trkpt><trkpt lat="41.14650817115268" lon="0.7861922992131998"><ele>283.6</ele><time>2026-04-15T16:19:05.999Z</time></trkpt><trkpt lat="41.146493395879084" lon="0.7860852612635808"><ele>285.2</ele><time>2026-04-15T16:19:07.999Z</time></trkpt><trkpt lat="41.1464751668007" lon="0.7859643338494923"><ele>286.8</ele><time>2026-04-15T16:19:08.999Z</time></trkpt><trkpt lat="41.146450262286976" lon="0.7858178230005218"><ele>288.4</ele><time>2026-04-15T16:19:09.999Z</time></trkpt><trkpt lat="41.14641218325416" lon="0.7856711122955646"><ele>290.0</ele><time>2026-04-15T16:19:10.999Z</time></trkpt><trkpt lat="41.14636342931279" lon="0.7855182637394814"><ele>291.0</ele><time>2026-04-15T16:19:11.999Z</time></trkpt><trkpt lat="41.14632686004703" lon="0.7853799908981116"><ele>292.0</ele><time>2026-04-15T16:19:12.999Z</time></trkpt><trkpt lat="41.14629033314381" lon="0.7852785572063301"><ele>293.0</ele><time>2026-04-15T16:19:13.999Z</time></trkpt><trkpt lat="41.1462543581452" lon="0.7851988775366995"><ele>294.0</ele><time>2026-04-15T16:19:14.999Z</time></trkpt><trkpt lat="41.14616950967822" lon="0.7850854445145342"><ele>295.0</ele><time>2026-04-15T16:19:16.999Z</time></trkpt><trkpt lat="41.146087022255074" lon="0.7850015781270795"><ele>295.0</ele><time>2026-04-15T16:19:18.999Z</time></trkpt><trkpt lat="41.146059041270334" lon="0.7849033365040234"><ele>295.0</ele><time>2026-04-15T16:19:20.999Z</time></trkpt><trkpt lat="41.146107993581595" lon="0.7850173858882263"><ele>295.0</ele><time>2026-04-15T16:19:25.999Z</time></trkpt><trkpt lat="41.14616992686001" lon="0.7850796699478614"><ele>295.0</ele><time>2026-04-15T16:19:26.999Z</time></trkpt><trkpt lat="41.146232478177" lon="0.7851685737200784"><ele>295.0</ele><time>2026-04-15T16:19:27.999Z</time></trkpt><trkpt lat="41.14629465885694" lon="0.785288088986987"><ele>295.0</ele><time>2026-04-15T16:19:28.999Z</time></trkpt><trkpt lat="41.14634351365771" lon="0.7854193742717437"><ele>295.0</ele><time>2026-04-15T16:19:29.999Z</time></trkpt><trkpt lat="41.146384867538096" lon="0.7855731916207963"><ele>295.0</ele><time>2026-04-15T16:19:30.999Z</time></trkpt><trkpt lat="41.14643753801402" lon="0.785749891110509"><ele>295.0</ele><time>2026-04-15T16:19:31.999Z</time></trkpt><trkpt lat="41.14648094024289" lon="0.7859365695892161"><ele>293.75</ele><time>2026-04-15T16:19:32.999Z</time></trkpt><trkpt lat="41.1465100759868" lon="0.7861209504319325"><ele>292.5</ele><time>2026-04-15T16:19:33.999Z</time></trkpt><trkpt lat="41.14653385646404" lon="0.7862716040462038"><ele>291.25</ele><time>2026-04-15T16:19:34.999Z</time></trkpt><trkpt lat="41.14655360430659" lon="0.7864014304244347"><ele>290.0</ele><time>2026-04-15T16:19:35.999Z</time></trkpt><trkpt lat="41.14657512630957" lon="0.7865244926709573"><ele>288.83333333333337</ele><time>2026-04-15T16:19:36.999Z</time></trkpt><trkpt lat="41.146591144752826" lon="0.7866311989612319"><ele>287.6666666666667</ele><time>2026-04-15T16:19:37.999Z</time></trkpt><trkpt lat="41.14660401974429" lon="0.7867337762133588"><ele>286.5</ele><time>2026-04-15T16:19:38.999Z</time></trkpt><trkpt lat="41.146616073778866" lon="0.7868293554403181"><ele>285.3333333333333</ele><time>2026-04-15T16:19:39.999Z</time></trkpt><trkpt lat="41.14662810836754" lon="0.7869167613422284"><ele>284.16666666666663</ele><time>2026-04-15T16:19:40.999Z</time></trkpt><trkpt lat="41.14663694639612" lon="0.7870650566928572"><ele>283.0</ele><time>2026-04-15T16:19:42.999Z</time></trkpt><trkpt lat="41.14663925852147" lon="0.7871823366061127"><ele>283.0</ele><time>2026-04-15T16:19:44.999Z</time></trkpt><trkpt lat="41.14663098285942" lon="0.7872878620991692"><ele>283.0</ele><time>2026-04-15T16:19:46.999Z</time></trkpt><trkpt lat="41.146647245121784" lon="0.7871636897218952"><ele>283.0</ele><time>2026-04-15T16:19:54.999Z</time></trkpt><trkpt lat="41.14663969006785" lon="0.7870540271248506"><ele>283.0</ele><time>2026-04-15T16:19:56.999Z</time></trkpt><trkpt lat="41.14662887084203" lon="0.7869413080874154"><ele>283.0</ele><time>2026-04-15T16:19:58.999Z</time></trkpt><trkpt lat="41.14661582466502" lon="0.7867773180028881"><ele>282.8</ele><time>2026-04-15T16:20:00.999Z</time></trkpt><trkpt lat="41.14660621424603" lon="0.786692531815331"><ele>282.6</ele><time>2026-04-15T16:20:02.999Z</time></trkpt><trkpt lat="41.14658126709752" lon="0.786543244054983"><ele>282.4</ele><time>2026-04-15T16:20:04.999Z</time></trkpt><trkpt lat="41.146564595778365" lon="0.7864340466161137"><ele>282.2</ele><time>2026-04-15T16:20:06.999Z</time></trkpt><trkpt lat="41.14654792074688" lon="0.7863349998317918"><ele>282.0</ele><time>2026-04-15T16:20:08.999Z</time></trkpt><trkpt lat="41.14651200923711" lon="0.7861521968487312"><ele>283.6</ele><time>2026-04-15T16:20:10.999Z</time></trkpt><trkpt lat="41.146498294602225" lon="0.7860513971265957"><ele>285.2</ele><time>2026-04-15T16:20:12.999Z</time></trkpt><trkpt lat="41.1464828561581" lon="0.7859512192407099"><ele>286.8</ele><time>2026-04-15T16:20:13.999Z</time></trkpt><trkpt lat="41.14645517380646" lon="0.7858151905224965"><ele>288.4</ele><time>2026-04-15T16:20:14.999Z</time></trkpt><trkpt lat="41.146414629934235" lon="0.7856643775789469"><ele>290.0</ele><time>2026-04-15T16:20:15.999Z</time></trkpt><trkpt lat="41.146367577668286" lon="0.7855101929949698"><ele>291.25</ele><time>2026-04-15T16:20:16.999Z</time></trkpt><trkpt lat="41.146315013009925" lon="0.7853388727915753"><ele>292.5</ele><time>2026-04-15T16:20:17.999Z</time></trkpt><trkpt lat="41.14625379203893" lon="0.7851974279653088"><ele>293.75</ele><time>2026-04-15T16:20:18.999Z</time></trkpt><trkpt lat="41.14617446225476" lon="0.7850917967029817"><ele>295.0</ele><time>2026-04-15T16:20:19.999Z</time></trkpt><trkpt lat="41.14610096672753" lon="0.7850019510143067"><ele>295.16666666666663</ele><time>2026-04-15T16:20:20.999Z</time></trkpt><trkpt lat="41.146054961042076" lon="0.7848993470651751"><ele>295.3333333333333</ele><time>2026-04-15T16:20:21.999Z</time></trkpt><trkpt lat="41.14602917722898" lon="0.7847854822468157"><ele>295.5</ele><time>2026-04-15T16:20:22.999Z</time></trkpt><trkpt lat="41.146035519332266" lon="0.7846726243381064"><ele>295.6666666666667</ele><time>2026-04-15T16:20:23.999Z</time></trkpt><trkpt lat="41.146025248045895" lon="0.7845694309442807"><ele>295.83333333333337</ele><time>2026-04-15T16:20:24.999Z</time></trkpt><trkpt lat="41.14599936021355" lon="0.7844805512651957"><ele>296.0</ele><time>2026-04-15T16:20:25.999Z</time></trkpt><trkpt lat="41.145964266781355" lon="0.7844040202493235"><ele>293.75</ele><time>2026-04-15T16:20:26.999Z</time></trkpt><trkpt lat="41.14592003059963" lon="0.78425254611225"><ele>291.5</ele><time>2026-04-15T16:20:28.999Z</time></trkpt><trkpt lat="41.1458909719665" lon="0.7841025095328273"><ele>289.25</ele><time>2026-04-15T16:20:30.999Z</time></trkpt><trkpt lat="41.145874737700865" lon="0.7839505887968107"><ele>287.0</ele><time>2026-04-15T16:20:32.998Z</time></trkpt><trkpt lat="41.14587934390264" lon="0.7837906355557956"><ele>287.0</ele><time>2026-04-15T16:20:34.998Z</time></trkpt><trkpt lat="41.14588733720733" lon="0.7836557077837957"><ele>287.0</ele><time>2026-04-15T16:20:36.998Z</time></trkpt><trkpt lat="41.14589452443206" lon="0.783555289145578"><ele>287.0</ele><time>2026-04-15T16:20:38.998Z</time></trkpt><trkpt lat="41.14577632998915" lon="0.7829869417054679"><ele>286.33333333333337</ele><time>2026-04-15T16:20:42.998Z</time></trkpt><trkpt lat="41.14564098914596" lon="0.7829356891860226"><ele>285.6666666666667</ele><time>2026-04-15T16:20:44.998Z</time></trkpt><trkpt lat="41.14556535531659" lon="0.7829206777469064"><ele>285.0</ele><time>2026-04-15T16:20:46.998Z</time></trkpt><trkpt lat="41.145545107471705" lon="0.7833285268569525"><ele>285.0</ele><time>2026-04-15T16:20:54.998Z</time></trkpt><trkpt lat="41.145616916351" lon="0.7833650136090229"><ele>285.0</ele><time>2026-04-15T16:20:56.998Z</time></trkpt><trkpt lat="41.1457114393285" lon="0.7834014657442451"><ele>285.0</ele><time>2026-04-15T16:20:58.998Z</time></trkpt><trkpt lat="41.14578297234716" lon="0.7834481097834264"><ele>285.0</ele><time>2026-04-15T16:21:00.998Z</time></trkpt><trkpt lat="41.14579526719413" lon="0.7835616355867563"><ele>285.0</ele><time>2026-04-15T16:21:04.999Z</time></trkpt><trkpt lat="41.14580319083652" lon="0.7836959211014428"><ele>285.0</ele><time>2026-04-15T16:21:07Z</time></trkpt><trkpt lat="41.14584899872216" lon="0.7838209284399639"><ele>285.3333333333333</ele><time>2026-04-15T16:21:09Z</time></trkpt><trkpt lat="41.145874722463795" lon="0.7839273885637564"><ele>285.6666666666667</ele><time>2026-04-15T16:21:10Z</time></trkpt><trkpt lat="41.14586350700105" lon="0.7840412881639852"><ele>286.0</ele><time>2026-04-15T16:21:11Z</time></trkpt><trkpt lat="41.14589473937437" lon="0.7841595797561671"><ele>286.33333333333337</ele><time>2026-04-15T16:21:12Z</time></trkpt><trkpt lat="41.14591505738736" lon="0.7842668982721168"><ele>286.6666666666667</ele><time>2026-04-15T16:21:13Z</time></trkpt><trkpt lat="41.14595590194754" lon="0.7843878278718048"><ele>287.0</ele><time>2026-04-15T16:21:14Z</time></trkpt><trkpt lat="41.14600298320005" lon="0.7845155923912628"><ele>288.8</ele><time>2026-04-15T16:21:15Z</time></trkpt><trkpt lat="41.14602882952483" lon="0.7846737499399375"><ele>290.6</ele><time>2026-04-15T16:21:16Z</time></trkpt><trkpt lat="41.14602813544967" lon="0.7848242187129808"><ele>292.40000000000003</ele><time>2026-04-15T16:21:17Z</time></trkpt><trkpt lat="41.146049025846516" lon="0.7849442466787565"><ele>294.2</ele><time>2026-04-15T16:21:18Z</time></trkpt><trkpt lat="41.146113890286365" lon="0.7850246703663988"><ele>296.0</ele><time>2026-04-15T16:21:19Z</time></trkpt><trkpt lat="41.14615445600629" lon="0.7851060697384041"><ele>295.83333333333337</ele><time>2026-04-15T16:21:20Z</time></trkpt><trkpt lat="41.146255861362775" lon="0.7851997018618009"><ele>295.6666666666667</ele><time>2026-04-15T16:21:22Z</time></trkpt><trkpt lat="41.14628602423649" lon="0.7852796341035642"><ele>295.5</ele><time>2026-04-15T16:21:23Z</time></trkpt><trkpt lat="41.14633333732732" lon="0.7854111451487896"><ele>295.3333333333333</ele><time>2026-04-15T16:21:25Z</time></trkpt><trkpt lat="41.14635865852647" lon="0.7854959128574833"><ele>295.16666666666663</ele><time>2026-04-15T16:21:27Z</time></trkpt><trkpt lat="41.146388410781704" lon="0.7855730332085638"><ele>295.0</ele><time>2026-04-15T16:21:29Z</time></trkpt><trkpt lat="41.14641702762875" lon="0.7856607192907923"><ele>295.0</ele><time>2026-04-15T16:21:30Z</time></trkpt><trkpt lat="41.14643401936298" lon="0.7857530756891429"><ele>295.0</ele><time>2026-04-15T16:21:32Z</time></trkpt><trkpt lat="41.14646616536302" lon="0.7858579310464141"><ele>295.0</ele><time>2026-04-15T16:21:33Z</time></trkpt><trkpt lat="41.146493547207015" lon="0.7859967517292258"><ele>295.0</ele><time>2026-04-15T16:21:34Z</time></trkpt><trkpt lat="41.14651724857351" lon="0.7861499361980873"><ele>295.0</ele><time>2026-04-15T16:21:35Z</time></trkpt><trkpt lat="41.14654588051333" lon="0.7863188616739178"><ele>292.0</ele><time>2026-04-15T16:21:36Z</time></trkpt><trkpt lat="41.146576945478905" lon="0.7864966902719018"><ele>289.0</ele><time>2026-04-15T16:21:37Z</time></trkpt><trkpt lat="41.1466092077986" lon="0.7866905729032291"><ele>286.0</ele><time>2026-04-15T16:21:38Z</time></trkpt><trkpt lat="41.14662880045544" lon="0.7869010048384102"><ele>283.0</ele><time>2026-04-15T16:21:39Z</time></trkpt><trkpt lat="41.146641519967794" lon="0.7871047386743364"><ele>283.0</ele><time>2026-04-15T16:21:39.999Z</time></trkpt><trkpt lat="41.14664477535141" lon="0.7872713042061058"><ele>283.0</ele><time>2026-04-15T16:21:40.999Z</time></trkpt><trkpt lat="41.146628868476164" lon="0.7874181072284901"><ele>283.0</ele><time>2026-04-15T16:21:41.999Z</time></trkpt><trkpt lat="41.14660764103632" lon="0.7875489618859652"><ele>283.0</ele><time>2026-04-15T16:21:42.999Z</time></trkpt><trkpt lat="41.14662700143837" lon="0.7876675842237086"><ele>283.0</ele><time>2026-04-15T16:21:43.999Z</time></trkpt><trkpt lat="41.14667737834071" lon="0.7877892781224057"><ele>283.75</ele><time>2026-04-15T16:21:44.999Z</time></trkpt><trkpt lat="41.14673316429445" lon="0.7879327781272841"><ele>284.5</ele><time>2026-04-15T16:21:45.999Z</time></trkpt><trkpt lat="41.14676946711885" lon="0.7880948239257511"><ele>285.25</ele><time>2026-04-15T16:21:46.999Z</time></trkpt><trkpt lat="41.14677906471494" lon="0.7882829074157721"><ele>286.0</ele><time>2026-04-15T16:21:47.999Z</time></trkpt><trkpt lat="41.14678571796755" lon="0.7884708955840065"><ele>286.25</ele><time>2026-04-15T16:21:48.999Z</time></trkpt><trkpt lat="41.14680068829309" lon="0.7886680144988784"><ele>286.5</ele><time>2026-04-15T16:21:49.999Z</time></trkpt><trkpt lat="41.14682221323965" lon="0.7888475497412463"><ele>286.75</ele><time>2026-04-15T16:21:50.999Z</time></trkpt><trkpt lat="41.14689101109861" lon="0.7889841210308596"><ele>287.0</ele><time>2026-04-15T16:21:51.999Z</time></trkpt><trkpt lat="41.14698085714238" lon="0.7891167759468237"><ele>287.0</ele><time>2026-04-15T16:21:52.999Z</time></trkpt><trkpt lat="41.14708498983357" lon="0.7892423995136709"><ele>287.0</ele><time>2026-04-15T16:21:53.999Z</time></trkpt><trkpt lat="41.147150546785916" lon="0.78937015248521"><ele>287.0</ele><time>2026-04-15T16:21:54.999Z</time></trkpt><trkpt lat="41.14720927847642" lon="0.7894924489919155"><ele>287.0</ele><time>2026-04-15T16:21:55.999Z</time></trkpt><trkpt lat="41.14726643443977" lon="0.789579420546311"><ele>287.4</ele><time>2026-04-15T16:21:56.999Z</time></trkpt><trkpt lat="41.14730418312017" lon="0.7896730476973026"><ele>287.79999999999995</ele><time>2026-04-15T16:21:57.999Z</time></trkpt><trkpt lat="41.14731104758173" lon="0.7898155096272872"><ele>288.2</ele><time>2026-04-15T16:21:59.999Z</time></trkpt><trkpt lat="41.14730564953559" lon="0.7899127770974333"><ele>288.59999999999997</ele><time>2026-04-15T16:22:02.999Z</time></trkpt><trkpt lat="41.147298164019006" lon="0.7896907144682046"><ele>289.0</ele><time>2026-04-15T16:22:07.999Z</time></trkpt><trkpt lat="41.147261664092824" lon="0.789558262429749"><ele>289.0</ele><time>2026-04-15T16:22:08.999Z</time></trkpt><trkpt lat="41.14720603762676" lon="0.7894310644065613"><ele>289.0</ele><time>2026-04-15T16:22:09.999Z</time></trkpt><trkpt lat="41.147134321178434" lon="0.78928832607273"><ele>289.0</ele><time>2026-04-15T16:22:10.999Z</time></trkpt><trkpt lat="41.14704999092655" lon="0.7891382794191545"><ele>289.0</ele><time>2026-04-15T16:22:11.999Z</time></trkpt><trkpt lat="41.14694616393248" lon="0.7890148415983059"><ele>288.59999999999997</ele><time>2026-04-15T16:22:12.999Z</time></trkpt><trkpt lat="41.14686024500792" lon="0.7889050974884523"><ele>288.2</ele><time>2026-04-15T16:22:13.999Z</time></trkpt><trkpt lat="41.14680839432977" lon="0.7887884793888609"><ele>287.79999999999995</ele><time>2026-04-15T16:22:14.999Z</time></trkpt><trkpt lat="41.14678104524589" lon="0.7886558760626893"><ele>287.4</ele><time>2026-04-15T16:22:15.999Z</time></trkpt><trkpt lat="41.14677839935585" lon="0.7885323798117662"><ele>287.0</ele><time>2026-04-15T16:22:16.999Z</time></trkpt><trkpt lat="41.14678926205606" lon="0.7884007519966131"><ele>286.83333333333337</ele><time>2026-04-15T16:22:17.999Z</time></trkpt><trkpt lat="41.14678612848663" lon="0.7882617658026484"><ele>286.6666666666667</ele><time>2026-04-15T16:22:18.999Z</time></trkpt><trkpt lat="41.14677317989991" lon="0.7881293927784092"><ele>286.5</ele><time>2026-04-15T16:22:19.999Z</time></trkpt><trkpt lat="41.14675790816346" lon="0.7880118482455467"><ele>286.3333333333333</ele><time>2026-04-15T16:22:20.999Z</time></trkpt><trkpt lat="41.14674251841106" lon="0.7879135086212117"><ele>286.16666666666663</ele><time>2026-04-15T16:22:21.999Z</time></trkpt><trkpt lat="41.14672059203081" lon="0.7878268620856866"><ele>286.0</ele><time>2026-04-15T16:22:22.999Z</time></trkpt><trkpt lat="41.1466900502952" lon="0.7877457946815581"><ele>285.5</ele><time>2026-04-15T16:22:23.999Z</time></trkpt><trkpt lat="41.14665213987165" lon="0.7876763908961879"><ele>285.0</ele><time>2026-04-15T16:22:24.999Z</time></trkpt><trkpt lat="41.14661293441271" lon="0.7875530362961649"><ele>284.5</ele><time>2026-04-15T16:22:26.999Z</time></trkpt><trkpt lat="41.14661727836695" lon="0.7874298254539693"><ele>284.0</ele><time>2026-04-15T16:22:29.999Z</time></trkpt><trkpt lat="41.14664308480216" lon="0.7873064276597433"><ele>283.5</ele><time>2026-04-15T16:22:31.999Z</time></trkpt><trkpt lat="41.1466582309081" lon="0.7871895601702712"><ele>283.0</ele><time>2026-04-15T16:22:33.999Z</time></trkpt><trkpt lat="41.14664355717115" lon="0.7870795540350944"><ele>283.0</ele><time>2026-04-15T16:22:35.999Z</time></trkpt><trkpt lat="41.14663621574398" lon="0.7869865613962277"><ele>283.0</ele><time>2026-04-15T16:22:36.999Z</time></trkpt><trkpt lat="41.14662519577626" lon="0.7868740384450507"><ele>283.0</ele><time>2026-04-15T16:22:38.999Z</time></trkpt><trkpt lat="41.14661637724071" lon="0.7867587423481156"><ele>283.0</ele><time>2026-04-15T16:22:39.999Z</time></trkpt><trkpt lat="41.14660212668452" lon="0.7866174684294013"><ele>283.0</ele><time>2026-04-15T16:22:40.999Z</time></trkpt><trkpt lat="41.14657128333566" lon="0.7864669132084222"><ele>284.75</ele><time>2026-04-15T16:22:41.999Z</time></trkpt><trkpt lat="41.146540048632566" lon="0.7863018865304567"><ele>286.5</ele><time>2026-04-15T16:22:42.999Z</time></trkpt><trkpt lat="41.146512788693485" lon="0.7861140051356492"><ele>288.25</ele><time>2026-04-15T16:22:43.999Z</time></trkpt><trkpt lat="41.14647982659289" lon="0.7859429165630448"><ele>290.0</ele><time>2026-04-15T16:22:44.999Z</time></trkpt><trkpt lat="41.14645029927447" lon="0.7857932597749334"><ele>291.25</ele><time>2026-04-15T16:22:45.999Z</time></trkpt><trkpt lat="41.146416714584724" lon="0.7856604744452221"><ele>292.5</ele><time>2026-04-15T16:22:46.999Z</time></trkpt><trkpt lat="41.14637074911839" lon="0.7855195858470938"><ele>293.75</ele><time>2026-04-15T16:22:47.999Z</time></trkpt><trkpt lat="41.146321830450475" lon="0.7853540687693352"><ele>295.0</ele><time>2026-04-15T16:22:48.999Z</time></trkpt><trkpt lat="41.146262830458014" lon="0.7852078684940844"><ele>295.25</ele><time>2026-04-15T16:22:49.999Z</time></trkpt><trkpt lat="41.146176463664695" lon="0.7850800308075424"><ele>295.5</ele><time>2026-04-15T16:22:50.999Z</time></trkpt><trkpt lat="41.146083232113995" lon="0.7849648938493542"><ele>295.75</ele><time>2026-04-15T16:22:51.999Z</time></trkpt><trkpt lat="41.146025944982625" lon="0.7848379286681788"><ele>296.0</ele><time>2026-04-15T16:22:52.999Z</time></trkpt><trkpt lat="41.14601840464047" lon="0.7846986316976504"><ele>296.0</ele><time>2026-04-15T16:22:53.999Z</time></trkpt><trkpt lat="41.146019850401885" lon="0.784532105894379"><ele>296.0</ele><time>2026-04-15T16:22:54.999Z</time></trkpt><trkpt lat="41.14598378433614" lon="0.7843742824972085"><ele>296.0</ele><time>2026-04-15T16:22:55.999Z</time></trkpt><trkpt lat="41.14592780628398" lon="0.7842144094633114"><ele>296.0</ele><time>2026-04-15T16:22:56.999Z</time></trkpt><trkpt lat="41.145877023292314" lon="0.7840386838960445"><ele>293.75</ele><time>2026-04-15T16:22:57.999Z</time></trkpt><trkpt lat="41.145863914322156" lon="0.7838435254575699"><ele>291.5</ele><time>2026-04-15T16:22:58.999Z</time></trkpt><trkpt lat="41.14586155510852" lon="0.7836538304721631"><ele>289.25</ele><time>2026-04-15T16:22:59.999Z</time></trkpt><trkpt lat="41.145878224596025" lon="0.7834656324413484"><ele>287.0</ele><time>2026-04-15T16:23:00.999Z</time></trkpt><trkpt lat="41.14590694894277" lon="0.7832889900084108"><ele>284.75</ele><time>2026-04-15T16:23:01.999Z</time></trkpt><trkpt lat="41.14592359319662" lon="0.7831226875745455"><ele>282.5</ele><time>2026-04-15T16:23:02.999Z</time></trkpt><trkpt lat="41.145946448485354" lon="0.7829469862962558"><ele>280.25</ele><time>2026-04-15T16:23:03.999Z</time></trkpt><trkpt lat="41.14597220436722" lon="0.782807296691138"><ele>278.0</ele><time>2026-04-15T16:23:04.999Z</time></trkpt><trkpt lat="41.14601974388442" lon="0.7827026160138215"><ele>278.4</ele><time>2026-04-15T16:23:05.999Z</time></trkpt><trkpt lat="41.14608609748456" lon="0.7826180925991615"><ele>278.8</ele><time>2026-04-15T16:23:06.999Z</time></trkpt><trkpt lat="41.146166762387395" lon="0.7825394609930225"><ele>279.2</ele><time>2026-04-15T16:23:08Z</time></trkpt><trkpt lat="41.14623246619294" lon="0.7824277447617501"><ele>279.6</ele><time>2026-04-15T16:23:09Z</time></trkpt><trkpt lat="41.146298503853615" lon="0.7822954092429907"><ele>280.0</ele><time>2026-04-15T16:23:10Z</time></trkpt><trkpt lat="41.14635329447165" lon="0.7821364932624946"><ele>280.0</ele><time>2026-04-15T16:23:11Z</time></trkpt><trkpt lat="41.14639806864312" lon="0.7819522285531214"><ele>280.0</ele><time>2026-04-15T16:23:12Z</time></trkpt><trkpt lat="41.146437001685385" lon="0.7817542146195858"><ele>280.0</ele><time>2026-04-15T16:23:13Z</time></trkpt><trkpt lat="41.146473688329294" lon="0.7815814677493839"><ele>280.0</ele><time>2026-04-15T16:23:14Z</time></trkpt><trkpt lat="41.14648879633946" lon="0.7814355903258159"><ele>281.75</ele><time>2026-04-15T16:23:15Z</time></trkpt><trkpt lat="41.146493284299204" lon="0.7812892461944618"><ele>283.5</ele><time>2026-04-15T16:23:16Z</time></trkpt><trkpt lat="41.146484379927884" lon="0.78113894839999"><ele>285.25</ele><time>2026-04-15T16:23:17Z</time></trkpt><trkpt lat="41.146490581879846" lon="0.7809560366131678"><ele>287.0</ele><time>2026-04-15T16:23:18Z</time></trkpt><trkpt lat="41.14653775301998" lon="0.7807573082044699"><ele>285.33333333333337</ele><time>2026-04-15T16:23:19Z</time></trkpt><trkpt lat="41.14657020855511" lon="0.7805433564641601"><ele>283.6666666666667</ele><time>2026-04-15T16:23:20Z</time></trkpt><trkpt lat="41.14659685860814" lon="0.7803124997499129"><ele>282.0</ele><time>2026-04-15T16:23:21Z</time></trkpt><trkpt lat="41.146616910612046" lon="0.780095038093533"><ele>282.0</ele><time>2026-04-15T16:23:22Z</time></trkpt><trkpt lat="41.14666788322112" lon="0.7799248947383817"><ele>282.0</ele><time>2026-04-15T16:23:23Z</time></trkpt><trkpt lat="41.146747650561196" lon="0.7797529898211801"><ele>282.0</ele><time>2026-04-15T16:23:24Z</time></trkpt><trkpt lat="41.14681551166506" lon="0.7795629507123748"><ele>282.0</ele><time>2026-04-15T16:23:25Z</time></trkpt><trkpt lat="41.146910674729924" lon="0.7794203630356538"><ele>284.0</ele><time>2026-04-15T16:23:26Z</time></trkpt><trkpt lat="41.14699766148432" lon="0.7793094270872704"><ele>286.0</ele><time>2026-04-15T16:23:27Z</time></trkpt><trkpt lat="41.14707984238948" lon="0.7792221905924223"><ele>288.0</ele><time>2026-04-15T16:23:28Z</time></trkpt><trkpt lat="41.14715898375931" lon="0.7791337640703879"><ele>290.0</ele><time>2026-04-15T16:23:29Z</time></trkpt><trkpt lat="41.1472199875161" lon="0.7790063129545639"><ele>292.0</ele><time>2026-04-15T16:23:30Z</time></trkpt><trkpt lat="41.14725130800156" lon="0.7788469249189215"><ele>292.0</ele><time>2026-04-15T16:23:31Z</time></trkpt><trkpt lat="41.147267679991955" lon="0.7786516009775735"><ele>292.0</ele><time>2026-04-15T16:23:32Z</time></trkpt><trkpt lat="41.14729292423285" lon="0.778454400405405"><ele>292.0</ele><time>2026-04-15T16:23:33Z</time></trkpt><trkpt lat="41.147318401909224" lon="0.7782549679544303"><ele>293.75</ele><time>2026-04-15T16:23:34Z</time></trkpt><trkpt lat="41.14730061043996" lon="0.778075373398824"><ele>295.5</ele><time>2026-04-15T16:23:35Z</time></trkpt><trkpt lat="41.147221091857126" lon="0.7779725899895076"><ele>297.25</ele><time>2026-04-15T16:23:36Z</time></trkpt><trkpt lat="41.1471318454587" lon="0.7778989979692504"><ele>299.0</ele><time>2026-04-15T16:23:37Z</time></trkpt><trkpt lat="41.14705914127093" lon="0.7777890167377792"><ele>299.5</ele><time>2026-04-15T16:23:38Z</time></trkpt><trkpt lat="41.14702048089462" lon="0.7776485409540523"><ele>300.0</ele><time>2026-04-15T16:23:39Z</time></trkpt><trkpt lat="41.14699564805874" lon="0.7774904076641457"><ele>300.5</ele><time>2026-04-15T16:23:40Z</time></trkpt><trkpt lat="41.146975294817295" lon="0.7773313941732203"><ele>301.0</ele><time>2026-04-15T16:23:41Z</time></trkpt><trkpt lat="41.14695436309804" lon="0.7771788818585036"><ele>301.0</ele><time>2026-04-15T16:23:42Z</time></trkpt><trkpt lat="41.14699435737823" lon="0.7770549808050131"><ele>301.0</ele><time>2026-04-15T16:23:43Z</time></trkpt><trkpt lat="41.14699435737466" lon="0.776952129190616"><ele>301.0</ele><time>2026-04-15T16:23:44Z</time></trkpt><trkpt lat="41.14696607073163" lon="0.7768544312964432"><ele>301.0</ele><time>2026-04-15T16:23:45Z</time></trkpt><trkpt lat="41.14686880793445" lon="0.7768228978816767"><ele>301.0</ele><time>2026-04-15T16:23:46Z</time></trkpt><trkpt lat="41.14677374894439" lon="0.776776285091762"><ele>300.2</ele><time>2026-04-15T16:23:47Z</time></trkpt><trkpt lat="41.14667372233807" lon="0.7767263485543591"><ele>299.40000000000003</ele><time>2026-04-15T16:23:48Z</time></trkpt><trkpt lat="41.146563288297806" lon="0.7766712162876986"><ele>298.6</ele><time>2026-04-15T16:23:49Z</time></trkpt><trkpt lat="41.146452475828305" lon="0.7766301491282646"><ele>297.8</ele><time>2026-04-15T16:23:50Z</time></trkpt><trkpt lat="41.146369757572856" lon="0.7765834156095611"><ele>297.0</ele><time>2026-04-15T16:23:51Z</time></trkpt><trkpt lat="41.14631300624485" lon="0.7765441949454497"><ele>297.0</ele><time>2026-04-15T16:23:52Z</time></trkpt><trkpt lat="41.146229453131056" lon="0.7765556521071119"><ele>297.0</ele><time>2026-04-15T16:23:54Z</time></trkpt><trkpt lat="41.14624506149869" lon="0.7766802554487986"><ele>297.0</ele><time>2026-04-15T16:24:02Z</time></trkpt><trkpt lat="41.14655853173195" lon="0.7766891427081152"><ele>297.0</ele><time>2026-04-15T16:24:02.999Z</time></trkpt><trkpt lat="41.14668150110256" lon="0.7767553179602172"><ele>297.0</ele><time>2026-04-15T16:24:03.999Z</time></trkpt><trkpt lat="41.14680472380289" lon="0.7768108907458934"><ele>297.0</ele><time>2026-04-15T16:24:04.999Z</time></trkpt><trkpt lat="41.146905065070456" lon="0.77685626884615"><ele>297.0</ele><time>2026-04-15T16:24:05.999Z</time></trkpt><trkpt lat="41.14698111475168" lon="0.7769243917205839"><ele>297.8</ele><time>2026-04-15T16:24:06.999Z</time></trkpt><trkpt lat="41.14700549160424" lon="0.7770412028115589"><ele>298.6</ele><time>2026-04-15T16:24:07.999Z</time></trkpt><trkpt lat="41.14697444043944" lon="0.7771682751840201"><ele>299.40000000000003</ele><time>2026-04-15T16:24:08.999Z</time></trkpt><trkpt lat="41.146948360995886" lon="0.7773143313618258"><ele>300.2</ele><time>2026-04-15T16:24:09.999Z</time></trkpt><trkpt lat="41.14696295215555" lon="0.7774764256678367"><ele>301.0</ele><time>2026-04-15T16:24:10.999Z</time></trkpt><trkpt lat="41.14700246380559" lon="0.7776493696319615"><ele>300.6</ele><time>2026-04-15T16:24:11.999Z</time></trkpt><trkpt lat="41.14704465090952" lon="0.7777914032751356"><ele>300.20000000000005</ele><time>2026-04-15T16:24:12.999Z</time></trkpt><trkpt lat="41.14710341797663" lon="0.7779180627025387"><ele>299.79999999999995</ele><time>2026-04-15T16:24:13.999Z</time></trkpt><trkpt lat="41.1471814818737" lon="0.7780013440764578"><ele>299.4</ele><time>2026-04-15T16:24:14.999Z</time></trkpt><trkpt lat="41.147264072746516" lon="0.7780711500578416"><ele>299.0</ele><time>2026-04-15T16:24:15.999Z</time></trkpt><trkpt lat="41.147301363493106" lon="0.7781864097488774"><ele>299.0</ele><time>2026-04-15T16:24:16.999Z</time></trkpt><trkpt lat="41.14730251212313" lon="0.7783371714635535"><ele>299.0</ele><time>2026-04-15T16:24:17.999Z</time></trkpt><trkpt lat="41.14727775812047" lon="0.7785304971753241"><ele>299.0</ele><time>2026-04-15T16:24:18.999Z</time></trkpt><trkpt lat="41.14723840319324" lon="0.778740340381859"><ele>299.0</ele><time>2026-04-15T16:24:19.999Z</time></trkpt><trkpt lat="41.147199386685976" lon="0.7789544241019752"><ele>297.25</ele><time>2026-04-15T16:24:20.999Z</time></trkpt><trkpt lat="41.14715928939174" lon="0.7791252730908044"><ele>295.5</ele><time>2026-04-15T16:24:21.999Z</time></trkpt><trkpt lat="41.14710226123378" lon="0.7792553339403114"><ele>293.75</ele><time>2026-04-15T16:24:22.999Z</time></trkpt><trkpt lat="41.14700775687037" lon="0.7793285587806594"><ele>292.0</ele><time>2026-04-15T16:24:23.999Z</time></trkpt><trkpt lat="41.14690170936437" lon="0.7794175060935623"><ele>289.5</ele><time>2026-04-15T16:24:24.999Z</time></trkpt><trkpt lat="41.14681183103974" lon="0.7795402335645198"><ele>287.0</ele><time>2026-04-15T16:24:25.999Z</time></trkpt><trkpt lat="41.14672520393606" lon="0.7796970288625491"><ele>284.5</ele><time>2026-04-15T16:24:26.999Z</time></trkpt><trkpt lat="41.14664190672126" lon="0.7798863776426378"><ele>282.0</ele><time>2026-04-15T16:24:27.999Z</time></trkpt><trkpt lat="41.14657483631372" lon="0.7801037088389287"><ele>280.6666666666667</ele><time>2026-04-15T16:24:28.999Z</time></trkpt><trkpt lat="41.14654565863536" lon="0.7803373925577978"><ele>279.33333333333337</ele><time>2026-04-15T16:24:29.999Z</time></trkpt><trkpt lat="41.14653245818169" lon="0.7805781682543982"><ele>278.0</ele><time>2026-04-15T16:24:30.999Z</time></trkpt><trkpt lat="41.146501398221645" lon="0.780810494986694"><ele>280.25</ele><time>2026-04-15T16:24:31.999Z</time></trkpt><trkpt lat="41.14647460047153" lon="0.7810213750577328"><ele>282.5</ele><time>2026-04-15T16:24:32.999Z</time></trkpt><trkpt lat="41.146463786041515" lon="0.7811911634318813"><ele>284.75</ele><time>2026-04-15T16:24:33.999Z</time></trkpt><trkpt lat="41.1464660984837" lon="0.7813297211678368"><ele>287.0</ele><time>2026-04-15T16:24:34.999Z</time></trkpt><trkpt lat="41.1464729901643" lon="0.7814489423661934"><ele>287.0</ele><time>2026-04-15T16:24:35.999Z</time></trkpt><trkpt lat="41.146446252267005" lon="0.7815640272766258"><ele>287.0</ele><time>2026-04-15T16:24:36.999Z</time></trkpt><trkpt lat="41.14642352021148" lon="0.7816915914021934"><ele>287.0</ele><time>2026-04-15T16:24:37.999Z</time></trkpt><trkpt lat="41.146395993028406" lon="0.7818446498392936"><ele>287.0</ele><time>2026-04-15T16:24:38.999Z</time></trkpt><trkpt lat="41.14635306632195" lon="0.7820259207045089"><ele>285.6</ele><time>2026-04-15T16:24:39.999Z</time></trkpt><trkpt lat="41.146307640477424" lon="0.7821808776068282"><ele>284.2</ele><time>2026-04-15T16:24:40.999Z</time></trkpt><trkpt lat="41.14627305242077" lon="0.7822973057485207"><ele>282.8</ele><time>2026-04-15T16:24:41.999Z</time></trkpt><trkpt lat="41.14623928931239" lon="0.7823995370501112"><ele>281.4</ele><time>2026-04-15T16:24:42.999Z</time></trkpt><trkpt lat="41.146169450917725" lon="0.7824692983683812"><ele>280.0</ele><time>2026-04-15T16:24:43.999Z</time></trkpt><trkpt lat="41.14609934799286" lon="0.7825679450742897"><ele>279.6</ele><time>2026-04-15T16:24:44.999Z</time></trkpt><trkpt lat="41.14603032857809" lon="0.7827008609921816"><ele>279.2</ele><time>2026-04-15T16:24:45.999Z</time></trkpt><trkpt lat="41.14597653505726" lon="0.7827943558123552"><ele>278.8</ele><time>2026-04-15T16:24:46.999Z</time></trkpt><trkpt lat="41.145943346080564" lon="0.782903160607218"><ele>278.4</ele><time>2026-04-15T16:24:47.999Z</time></trkpt><trkpt lat="41.1459220331159" lon="0.7830536771262163"><ele>278.0</ele><time>2026-04-15T16:24:48.999Z</time></trkpt><trkpt lat="41.145899724849826" lon="0.7832323598159392"><ele>278.0</ele><time>2026-04-15T16:24:49.999Z</time></trkpt><trkpt lat="41.14588096366257" lon="0.7834204270740092"><ele>278.0</ele><time>2026-04-15T16:24:50.999Z</time></trkpt><trkpt lat="41.14586526888823" lon="0.7836014716822781"><ele>278.0</ele><time>2026-04-15T16:24:51.999Z</time></trkpt><trkpt lat="41.14585076892499" lon="0.7837907851142881"><ele>278.0</ele><time>2026-04-15T16:24:52.999Z</time></trkpt><trkpt lat="41.14586670059609" lon="0.783984435880739"><ele>280.25</ele><time>2026-04-15T16:24:53.999Z</time></trkpt><trkpt lat="41.145889423111186" lon="0.7841704584248269"><ele>282.5</ele><time>2026-04-15T16:24:54.999Z</time></trkpt><trkpt lat="41.14592878187599" lon="0.7843339058223925"><ele>284.75</ele><time>2026-04-15T16:24:55.999Z</time></trkpt><trkpt lat="41.14599195941546" lon="0.7845006637498758"><ele>287.0</ele><time>2026-04-15T16:24:56.999Z</time></trkpt><trkpt lat="41.146035241252804" lon="0.784654157392325"><ele>288.6</ele><time>2026-04-15T16:24:57.999Z</time></trkpt><trkpt lat="41.146035125200115" lon="0.7847889003054849"><ele>290.2</ele><time>2026-04-15T16:24:58.999Z</time></trkpt><trkpt lat="41.14603580087621" lon="0.7849216435793424"><ele>291.8</ele><time>2026-04-15T16:24:59.999Z</time></trkpt><trkpt lat="41.14608784123903" lon="0.7850295321659017"><ele>293.4</ele><time>2026-04-15T16:25:00.999Z</time></trkpt><trkpt lat="41.14616872125601" lon="0.7851330817516962"><ele>295.0</ele><time>2026-04-15T16:25:01.999Z</time></trkpt><trkpt lat="41.1462517584876" lon="0.7852379618195625"><ele>295.0</ele><time>2026-04-15T16:25:02.999Z</time></trkpt><trkpt lat="41.14631404503043" lon="0.7853728330089322"><ele>295.0</ele><time>2026-04-15T16:25:03.999Z</time></trkpt><trkpt lat="41.14636330421105" lon="0.7855402936675074"><ele>295.0</ele><time>2026-04-15T16:25:04.999Z</time></trkpt><trkpt lat="41.146413802747794" lon="0.785715984740382"><ele>295.0</ele><time>2026-04-15T16:25:05.999Z</time></trkpt><trkpt lat="41.14646292673967" lon="0.7859044394162149"><ele>293.3333333333333</ele><time>2026-04-15T16:25:06.999Z</time></trkpt><trkpt lat="41.14650078021606" lon="0.7861101311002759"><ele>291.6666666666667</ele><time>2026-04-15T16:25:07.999Z</time></trkpt><trkpt lat="41.146532064921516" lon="0.7863184861543021"><ele>290.0</ele><time>2026-04-15T16:25:08.999Z</time></trkpt><trkpt lat="41.1465604684103" lon="0.7864935807724217"><ele>288.6</ele><time>2026-04-15T16:25:09.999Z</time></trkpt><trkpt lat="41.14658083224908" lon="0.7866000936892633"><ele>287.2</ele><time>2026-04-15T16:25:10.999Z</time></trkpt><trkpt lat="41.146588896474555" lon="0.7866970172187067"><ele>285.8</ele><time>2026-04-15T16:25:17Z</time></trkpt><trkpt lat="41.14660984837783" lon="0.7868257493629944"><ele>284.4</ele><time>2026-04-15T16:25:20Z</time></trkpt><trkpt lat="41.146624620329895" lon="0.7869678052087405"><ele>283.0</ele><time>2026-04-15T16:25:23Z</time></trkpt><trkpt lat="41.14663466798248" lon="0.7870912320555024"><ele>283.0</ele><time>2026-04-15T16:25:25Z</time></trkpt><trkpt lat="41.146637825433835" lon="0.7871780167762341"><ele>283.0</ele><time>2026-04-15T16:25:27Z</time></trkpt><trkpt lat="41.1466243811777" lon="0.7873342116637844"><ele>283.0</ele><time>2026-04-15T16:25:30Z</time></trkpt><trkpt lat="41.14660739257389" lon="0.7874547022482192"><ele>283.0</ele><time>2026-04-15T16:25:32Z</time></trkpt><trkpt lat="41.14653770514479" lon="0.7874927026570703"><ele>283.0</ele><time>2026-04-15T16:25:34Z</time></trkpt><trkpt lat="41.14640152654129" lon="0.7875203122120487"><ele>284.0</ele><time>2026-04-15T16:25:36Z</time></trkpt><trkpt lat="41.146302734577624" lon="0.7875602308894334"><ele>285.0</ele><time>2026-04-15T16:25:37Z</time></trkpt><trkpt lat="41.1461993342686" lon="0.787595326711455"><ele>286.0</ele><time>2026-04-15T16:25:38Z</time></trkpt><trkpt lat="41.1460822603355" lon="0.7876363643180776"><ele>287.0</ele><time>2026-04-15T16:25:39Z</time></trkpt><trkpt lat="41.14596102013283" lon="0.7876770223472764"><ele>287.6666666666667</ele><time>2026-04-15T16:25:40Z</time></trkpt><trkpt lat="41.14585688674337" lon="0.7877136556491978"><ele>288.33333333333337</ele><time>2026-04-15T16:25:41Z</time></trkpt><trkpt lat="41.145784260517374" lon="0.7877182327890347"><ele>289.0</ele><time>2026-04-15T16:25:42Z</time></trkpt><trkpt lat="41.14567100203095" lon="0.7876918002377279"><ele>289.6666666666667</ele><time>2026-04-15T16:25:44Z</time></trkpt><trkpt lat="41.14563043971734" lon="0.787627262302378"><ele>290.3333333333333</ele><time>2026-04-15T16:25:45Z</time></trkpt><trkpt lat="41.14555833332869" lon="0.7875588414308657"><ele>291.0</ele><time>2026-04-15T16:25:46Z</time></trkpt><trkpt lat="41.14547705581953" lon="0.7874695178248445"><ele>292.5</ele><time>2026-04-15T16:25:47Z</time></trkpt><trkpt lat="41.14536390073289" lon="0.7874350920932929"><ele>294.0</ele><time>2026-04-15T16:25:48Z</time></trkpt><trkpt lat="41.14525716643342" lon="0.7873997118113373"><ele>295.5</ele><time>2026-04-15T16:25:49Z</time></trkpt><trkpt lat="41.14514114199052" lon="0.7873416033819849"><ele>297.0</ele><time>2026-04-15T16:25:50Z</time></trkpt><trkpt lat="41.14500946000121" lon="0.7873196981382506"><ele>297.0</ele><time>2026-04-15T16:25:51Z</time></trkpt><trkpt lat="41.1448808469401" lon="0.787296766795627"><ele>297.0</ele><time>2026-04-15T16:25:52Z</time></trkpt><trkpt lat="41.14477297686393" lon="0.78731098678757"><ele>297.0</ele><time>2026-04-15T16:25:53Z</time></trkpt><trkpt lat="41.14469389944668" lon="0.7873085620540163"><ele>297.0</ele><time>2026-04-15T16:25:54Z</time></trkpt><trkpt lat="41.144633155073585" lon="0.7873379417406416"><ele>297.0</ele><time>2026-04-15T16:25:55Z</time></trkpt><trkpt lat="41.14453187989613" lon="0.7874041331318736"><ele>298.6</ele><time>2026-04-15T16:25:57Z</time></trkpt><trkpt lat="41.14439697985408" lon="0.7874561719996748"><ele>300.2</ele><time>2026-04-15T16:25:59Z</time></trkpt><trkpt lat="41.14429752045814" lon="0.7874619243802128"><ele>301.8</ele><time>2026-04-15T16:26:00Z</time></trkpt><trkpt lat="41.14421796860432" lon="0.7874370731173729"><ele>303.4</ele><time>2026-04-15T16:26:01Z</time></trkpt><trkpt lat="41.14412182807708" lon="0.7873358180339922"><ele>305.0</ele><time>2026-04-15T16:26:03Z</time></trkpt><trkpt lat="41.144054271293314" lon="0.7872850393058138"><ele>306.6</ele><time>2026-04-15T16:26:04Z</time></trkpt><trkpt lat="41.14397292445122" lon="0.7872484230039322"><ele>308.2</ele><time>2026-04-15T16:26:05Z</time></trkpt><trkpt lat="41.143873903824144" lon="0.787265179879981"><ele>309.8</ele><time>2026-04-15T16:26:06Z</time></trkpt><trkpt lat="41.1438029919205" lon="0.7872869662026042"><ele>311.4</ele><time>2026-04-15T16:26:07Z</time></trkpt><trkpt lat="41.14370747758453" lon="0.7872627112041445"><ele>313.0</ele><time>2026-04-15T16:26:09Z</time></trkpt><trkpt lat="41.14364579071637" lon="0.787143505148477"><ele>313.0</ele><time>2026-04-15T16:26:11Z</time></trkpt><trkpt lat="41.143626530014764" lon="0.787042767275152"><ele>313.0</ele><time>2026-04-15T16:26:53.999Z</time></trkpt><trkpt lat="41.14362281905377" lon="0.7868681660851309"><ele>313.0</ele><time>2026-04-15T16:26:55.999Z</time></trkpt><trkpt lat="41.143626033013255" lon="0.7867508588880003"><ele>313.0</ele><time>2026-04-15T16:26:56.999Z</time></trkpt><trkpt lat="41.143654174765885" lon="0.7866388018469483"><ele>313.0</ele><time>2026-04-15T16:26:57.999Z</time></trkpt><trkpt lat="41.143602243252445" lon="0.7864929862570139"><ele>313.4</ele><time>2026-04-15T16:26:59.999Z</time></trkpt><trkpt lat="41.14359923830277" lon="0.7863657131090298"><ele>313.8</ele><time>2026-04-15T16:27:01.999Z</time></trkpt><trkpt lat="41.14365046964818" lon="0.7862952538276168"><ele>314.2</ele><time>2026-04-15T16:27:03.999Z</time></trkpt><trkpt lat="41.14373611827172" lon="0.7862426941587869"><ele>314.6</ele><time>2026-04-15T16:27:06.999Z</time></trkpt><trkpt lat="41.14382542100166" lon="0.786197586285956"><ele>315.0</ele><time>2026-04-15T16:27:09.999Z</time></trkpt><trkpt lat="41.14392540571755" lon="0.7861432521401497"><ele>315.0</ele><time>2026-04-15T16:27:12.999Z</time></trkpt><trkpt lat="41.14401061384044" lon="0.7861183109561035"><ele>315.0</ele><time>2026-04-15T16:27:14.999Z</time></trkpt><trkpt lat="41.144070302603005" lon="0.7860766471972004"><ele>315.0</ele><time>2026-04-15T16:27:18.999Z</time></trkpt><trkpt lat="41.143991065224256" lon="0.7861089208458125"><ele>315.0</ele><time>2026-04-15T16:27:23Z</time></trkpt><trkpt lat="41.143914801657765" lon="0.7861520347254934"><ele>315.0</ele><time>2026-04-15T16:27:26Z</time></trkpt><trkpt lat="41.14383558849352" lon="0.7861987930824271"><ele>315.0</ele><time>2026-04-15T16:27:28Z</time></trkpt><trkpt lat="41.1437338282169" lon="0.7862538527090955"><ele>315.0</ele><time>2026-04-15T16:27:30Z</time></trkpt><trkpt lat="41.14366414974972" lon="0.7862966617312385"><ele>315.0</ele><time>2026-04-15T16:27:33Z</time></trkpt><trkpt lat="41.14360820796031" lon="0.7863760973704017"><ele>315.0</ele><time>2026-04-15T16:27:35Z</time></trkpt><trkpt lat="41.14358890656258" lon="0.786470685622894"><ele>315.0</ele><time>2026-04-15T16:27:38Z</time></trkpt><trkpt lat="41.143615413132665" lon="0.7863807630324764"><ele>315.0</ele><time>2026-04-15T16:27:47Z</time></trkpt><trkpt lat="41.14365683291005" lon="0.786311771945655"><ele>315.0</ele><time>2026-04-15T16:27:49Z</time></trkpt><trkpt lat="41.14373639702024" lon="0.7862565150358732"><ele>315.0</ele><time>2026-04-15T16:27:52Z</time></trkpt><trkpt lat="41.14380413647892" lon="0.7862187552204828"><ele>315.0</ele><time>2026-04-15T16:27:53Z</time></trkpt><trkpt lat="41.143867278001736" lon="0.7861796545252385"><ele>315.0</ele><time>2026-04-15T16:27:55Z</time></trkpt><trkpt lat="41.14394668149899" lon="0.7861309154352203"><ele>315.0</ele><time>2026-04-15T16:27:58Z</time></trkpt><trkpt lat="41.14400849878138" lon="0.7860953046313863"><ele>315.0</ele><time>2026-04-15T16:27:59Z</time></trkpt><trkpt lat="41.144077239934504" lon="0.7861003488426104"><ele>315.0</ele><time>2026-04-15T16:28:02Z</time></trkpt><trkpt lat="41.144008401201695" lon="0.7861072242318425"><ele>315.0</ele><time>2026-04-15T16:28:07Z</time></trkpt><trkpt lat="41.143940185467784" lon="0.7861476546180246"><ele>315.0</ele><time>2026-04-15T16:28:11Z</time></trkpt><trkpt lat="41.143847945656525" lon="0.7862030387660495"><ele>315.0</ele><time>2026-04-15T16:28:15Z</time></trkpt><trkpt lat="41.14377564540294" lon="0.786241328960808"><ele>315.0</ele><time>2026-04-15T16:28:17Z</time></trkpt><trkpt lat="41.14370459180193" lon="0.7862731138642948"><ele>315.0</ele><time>2026-04-15T16:28:18Z</time></trkpt><trkpt lat="41.14363082392502" lon="0.7863348684927474"><ele>315.0</ele><time>2026-04-15T16:28:20Z</time></trkpt><trkpt lat="41.14359886377502" lon="0.7864111536994915"><ele>315.0</ele><time>2026-04-15T16:28:22Z</time></trkpt><trkpt lat="41.1436036620689" lon="0.7865048724191284"><ele>315.0</ele><time>2026-04-15T16:28:24.999Z</time></trkpt><trkpt lat="41.14360105784023" lon="0.7864136227894333"><ele>315.0</ele><time>2026-04-15T16:28:30.999Z</time></trkpt><trkpt lat="41.143657623357754" lon="0.7863054086219593"><ele>315.0</ele><time>2026-04-15T16:28:33.999Z</time></trkpt><trkpt lat="41.14371712047434" lon="0.7862641212333862"><ele>315.0</ele><time>2026-04-15T16:28:35.999Z</time></trkpt><trkpt lat="41.14378099704059" lon="0.7862303041253241"><ele>315.0</ele><time>2026-04-15T16:28:38.999Z</time></trkpt><trkpt lat="41.143849019537484" lon="0.7861933407435133"><ele>315.0</ele><time>2026-04-15T16:28:40.999Z</time></trkpt><trkpt lat="41.14390988039052" lon="0.7861600074655272"><ele>315.0</ele><time>2026-04-15T16:28:42.999Z</time></trkpt><trkpt lat="41.14403726138101" lon="0.7860891253888108"><ele>315.0</ele><time>2026-04-15T16:28:45.999Z</time></trkpt><trkpt lat="41.14396122548338" lon="0.7861347409244505"><ele>315.0</ele><time>2026-04-15T16:28:53.999Z</time></trkpt><trkpt lat="41.14388687551101" lon="0.7861742134295001"><ele>315.0</ele><time>2026-04-15T16:28:54.999Z</time></trkpt><trkpt lat="41.143805104261695" lon="0.7862149313415224"><ele>315.0</ele><time>2026-04-15T16:28:55.999Z</time></trkpt><trkpt lat="41.143732165963776" lon="0.7862557637632531"><ele>315.0</ele><time>2026-04-15T16:28:56.999Z</time></trkpt><trkpt lat="41.14364053978768" lon="0.786319668255741"><ele>315.0</ele><time>2026-04-15T16:28:58.999Z</time></trkpt><trkpt lat="41.14360429540603" lon="0.7864086473031545"><ele>315.0</ele><time>2026-04-15T16:29:00.999Z</time></trkpt><trkpt lat="41.14359581254787" lon="0.7864963847377824"><ele>315.0</ele><time>2026-04-15T16:29:03.999Z</time></trkpt><trkpt lat="41.143611742424135" lon="0.7863741376578025"><ele>315.0</ele><time>2026-04-15T16:29:09.999Z</time></trkpt><trkpt lat="41.143627923465594" lon="0.7862608140257697"><ele>315.0</ele><time>2026-04-15T16:29:12.999Z</time></trkpt><trkpt lat="41.143741742313125" lon="0.7862498535467424"><ele>315.0</ele><time>2026-04-15T16:29:14.999Z</time></trkpt><trkpt lat="41.143822083577426" lon="0.7862073455518765"><ele>315.0</ele><time>2026-04-15T16:29:18.999Z</time></trkpt><trkpt lat="41.143912815668635" lon="0.7861579314530336"><ele>315.0</ele><time>2026-04-15T16:29:21.999Z</time></trkpt><trkpt lat="41.14397354674591" lon="0.7861235089666767"><ele>315.0</ele><time>2026-04-15T16:29:23.999Z</time></trkpt><trkpt lat="41.14405532115648" lon="0.7860964580253013"><ele>315.0</ele><time>2026-04-15T16:29:26Z</time></trkpt><trkpt lat="41.143979833621636" lon="0.7861242208463468"><ele>315.0</ele><time>2026-04-15T16:29:35Z</time></trkpt><trkpt lat="41.143892887189224" lon="0.7861704256547699"><ele>315.0</ele><time>2026-04-15T16:29:37Z</time></trkpt><trkpt lat="41.14383021181803" lon="0.7862080518941011"><ele>315.0</ele><time>2026-04-15T16:29:39Z</time></trkpt><trkpt lat="41.143758081978135" lon="0.7862443305232519"><ele>315.0</ele><time>2026-04-15T16:29:41Z</time></trkpt><trkpt lat="41.143684096564186" lon="0.7862868731872293"><ele>315.0</ele><time>2026-04-15T16:29:42Z</time></trkpt><trkpt lat="41.1436277425237" lon="0.7863340907615012"><ele>315.0</ele><time>2026-04-15T16:29:43Z</time></trkpt><trkpt lat="41.143590988353466" lon="0.7864357836714434"><ele>315.0</ele><time>2026-04-15T16:29:45Z</time></trkpt><trkpt lat="41.14363831867288" lon="0.7863212479929362"><ele>315.0</ele><time>2026-04-15T16:29:53Z</time></trkpt><trkpt lat="41.14369976671468" lon="0.7862643778876955"><ele>315.0</ele><time>2026-04-15T16:29:55Z</time></trkpt><trkpt lat="41.14377629096066" lon="0.7862382865088066"><ele>315.0</ele><time>2026-04-15T16:29:58Z</time></trkpt><trkpt lat="41.14384614283783" lon="0.7861982003376478"><ele>315.0</ele><time>2026-04-15T16:30:00Z</time></trkpt><trkpt lat="41.143916992639156" lon="0.7861527544749018"><ele>315.0</ele><time>2026-04-15T16:30:02Z</time></trkpt><trkpt lat="41.14399393078601" lon="0.7861208054149772"><ele>315.0</ele><time>2026-04-15T16:30:03Z</time></trkpt><trkpt lat="41.14407114866065" lon="0.786097072843677"><ele>315.0</ele><time>2026-04-15T16:30:05Z</time></trkpt><trkpt lat="41.1439969272498" lon="0.7861453743680336"><ele>315.0</ele><time>2026-04-15T16:30:11Z</time></trkpt><trkpt lat="41.14390683336251" lon="0.786196156741309"><ele>315.0</ele><time>2026-04-15T16:30:14Z</time></trkpt><trkpt lat="41.14382742837377" lon="0.7862113784527984"><ele>315.0</ele><time>2026-04-15T16:30:16Z</time></trkpt><trkpt lat="41.143702443921946" lon="0.7862777325245858"><ele>315.0</ele><time>2026-04-15T16:30:18Z</time></trkpt><trkpt lat="41.14362176287353" lon="0.7863465328126122"><ele>315.0</ele><time>2026-04-15T16:30:20Z</time></trkpt><trkpt lat="41.14359696857304" lon="0.7864338774891204"><ele>315.0</ele><time>2026-04-15T16:30:22Z</time></trkpt><trkpt lat="41.143615376397186" lon="0.7865180779014229"><ele>315.0</ele><time>2026-04-15T16:30:26Z</time></trkpt><trkpt lat="41.14361730502296" lon="0.7863860425063752"><ele>315.0</ele><time>2026-04-15T16:30:28.999Z</time></trkpt><trkpt lat="41.143652019242815" lon="0.786311947008926"><ele>315.0</ele><time>2026-04-15T16:30:30.999Z</time></trkpt><trkpt lat="41.14370769083728" lon="0.7862726765692454"><ele>315.0</ele><time>2026-04-15T16:30:32.999Z</time></trkpt><trkpt lat="41.14377171782281" lon="0.7862452775615529"><ele>315.0</ele><time>2026-04-15T16:30:35.999Z</time></trkpt><trkpt lat="41.143869870486014" lon="0.7861885525875691"><ele>315.0</ele><time>2026-04-15T16:30:38.999Z</time></trkpt><trkpt lat="41.14396239452656" lon="0.7861426664114516"><ele>315.0</ele><time>2026-04-15T16:30:41.999Z</time></trkpt><trkpt lat="41.14403287771789" lon="0.7861086039198839"><ele>315.0</ele><time>2026-04-15T16:30:42.999Z</time></trkpt><trkpt lat="41.143966274014076" lon="0.7861327274882857"><ele>315.0</ele><time>2026-04-15T16:30:50.999Z</time></trkpt><trkpt lat="41.14389036961166" lon="0.7861769387366194"><ele>315.0</ele><time>2026-04-15T16:30:52.999Z</time></trkpt><trkpt lat="41.14383029615703" lon="0.7862089314376811"><ele>315.0</ele><time>2026-04-15T16:30:54.999Z</time></trkpt><trkpt lat="41.143702089135516" lon="0.7862842765321614"><ele>315.0</ele><time>2026-04-15T16:30:56.999Z</time></trkpt><trkpt lat="41.14362267086403" lon="0.7863461969620635"><ele>315.0</ele><time>2026-04-15T16:30:58.999Z</time></trkpt><trkpt lat="41.143604911697565" lon="0.786478753097868"><ele>315.0</ele><time>2026-04-15T16:31:02.999Z</time></trkpt><trkpt lat="41.143615222659925" lon="0.786374958250629"><ele>315.0</ele><time>2026-04-15T16:37:40.999Z</time></trkpt><trkpt lat="41.14365968040516" lon="0.7862917329516419"><ele>315.0</ele><time>2026-04-15T16:37:42.999Z</time></trkpt><trkpt lat="41.14373277330167" lon="0.7862498552917967"><ele>315.0</ele><time>2026-04-15T16:37:45.999Z</time></trkpt><trkpt lat="41.14379332210751" lon="0.7862128802990118"><ele>315.0</ele><time>2026-04-15T16:37:47.999Z</time></trkpt><trkpt lat="41.14388172592946" lon="0.7861668459391498"><ele>315.0</ele><time>2026-04-15T16:37:50.998Z</time></trkpt><trkpt lat="41.14394697482443" lon="0.7861374648052463"><ele>315.0</ele><time>2026-04-15T16:37:52.998Z</time></trkpt><trkpt lat="41.14402400049922" lon="0.7861016503197519"><ele>315.0</ele><time>2026-04-15T16:37:53.998Z</time></trkpt><trkpt lat="41.14409288540271" lon="0.7860772324146446"><ele>315.0</ele><time>2026-04-15T16:37:55.998Z</time></trkpt><trkpt lat="41.14401960919032" lon="0.7860867176686367"><ele>315.0</ele><time>2026-04-15T16:38:00.999Z</time></trkpt><trkpt lat="41.14396153559067" lon="0.7861229267756351"><ele>315.0</ele><time>2026-04-15T16:38:02.999Z</time></trkpt><trkpt lat="41.14385822849136" lon="0.7861517605819692"><ele>315.0</ele><time>2026-04-15T16:38:05.999Z</time></trkpt><trkpt lat="41.1437658429868" lon="0.7862133657297758"><ele>315.0</ele><time>2026-04-15T16:38:08.999Z</time></trkpt><trkpt lat="41.14369982041385" lon="0.7862644486727774"><ele>315.0</ele><time>2026-04-15T16:38:10.999Z</time></trkpt><trkpt lat="41.143624929755404" lon="0.7863347165565228"><ele>315.0</ele><time>2026-04-15T16:38:12.999Z</time></trkpt><trkpt lat="41.14360413446153" lon="0.786436541909052"><ele>315.0</ele><time>2026-04-15T16:38:15.999Z</time></trkpt><trkpt lat="41.1436245347381" lon="0.7863566503017166"><ele>315.0</ele><time>2026-04-15T16:38:22.999Z</time></trkpt><trkpt lat="41.1436887619749" lon="0.786293569981929"><ele>315.0</ele><time>2026-04-15T16:38:25.999Z</time></trkpt><trkpt lat="41.14375363884621" lon="0.7862353333278507"><ele>315.0</ele><time>2026-04-15T16:38:28.999Z</time></trkpt><trkpt lat="41.143816214459264" lon="0.7862098497998089"><ele>315.0</ele><time>2026-04-15T16:38:30.999Z</time></trkpt><trkpt lat="41.14389653768479" lon="0.7861661340073102"><ele>315.0</ele><time>2026-04-15T16:38:33.999Z</time></trkpt><trkpt lat="41.143995087477876" lon="0.7861303287568975"><ele>315.0</ele><time>2026-04-15T16:38:35.999Z</time></trkpt><trkpt lat="41.14405500713834" lon="0.7861020640843759"><ele>315.0</ele><time>2026-04-15T16:38:37.999Z</time></trkpt><trkpt lat="41.14398473039628" lon="0.7861168344654116"><ele>315.0</ele><time>2026-04-15T16:38:44.999Z</time></trkpt><trkpt lat="41.14391680936451" lon="0.7861556757791903"><ele>315.0</ele><time>2026-04-15T16:38:46.999Z</time></trkpt><trkpt lat="41.14383266144459" lon="0.786201339717956"><ele>315.0</ele><time>2026-04-15T16:38:49.999Z</time></trkpt><trkpt lat="41.14376375283314" lon="0.7862276028062657"><ele>315.0</ele><time>2026-04-15T16:38:51.999Z</time></trkpt><trkpt lat="41.143671247258204" lon="0.7862850558853367"><ele>315.0</ele><time>2026-04-15T16:38:54.999Z</time></trkpt><trkpt lat="41.14361695722109" lon="0.7863547160047576"><ele>315.0</ele><time>2026-04-15T16:38:57.999Z</time></trkpt><trkpt lat="41.143594863055654" lon="0.7864373367157578"><ele>315.0</ele><time>2026-04-15T16:39:01.999Z</time></trkpt><trkpt lat="41.1436150334295" lon="0.7863391762792238"><ele>315.0</ele><time>2026-04-15T16:39:23.999Z</time></trkpt><trkpt lat="41.143689431822644" lon="0.7862736926313071"><ele>315.0</ele><time>2026-04-15T16:40:00Z</time></trkpt><trkpt lat="41.1437587770933" lon="0.7862318639363947"><ele>315.0</ele><time>2026-04-15T16:40:03Z</time></trkpt><trkpt lat="41.14385138155779" lon="0.7861807513390469"><ele>315.0</ele><time>2026-04-15T16:40:07Z</time></trkpt><trkpt lat="41.143933396971455" lon="0.7861486751466481"><ele>315.0</ele><time>2026-04-15T16:40:10Z</time></trkpt><trkpt lat="41.14399254380259" lon="0.7861186986198007"><ele>315.0</ele><time>2026-04-15T16:40:12Z</time></trkpt><trkpt lat="41.144062601912154" lon="0.7860896064413022"><ele>315.0</ele><time>2026-04-15T16:40:14Z</time></trkpt><trkpt lat="41.143985882023145" lon="0.7861159756880703"><ele>315.0</ele><time>2026-04-15T16:40:29Z</time></trkpt><trkpt lat="41.14391817953534" lon="0.7861554184679405"><ele>315.0</ele><time>2026-04-15T16:40:30Z</time></trkpt><trkpt lat="41.1438260840171" lon="0.7862016068656432"><ele>315.0</ele><time>2026-04-15T16:40:31Z</time></trkpt><trkpt lat="41.143750421118334" lon="0.7862375791047072"><ele>315.0</ele><time>2026-04-15T16:40:32Z</time></trkpt><trkpt lat="41.14368768328977" lon="0.7862743162827148"><ele>315.0</ele><time>2026-04-15T16:40:33Z</time></trkpt><trkpt lat="41.14362467802275" lon="0.7863201128027327"><ele>315.0</ele><time>2026-04-15T16:40:35Z</time></trkpt><trkpt lat="41.14369391288884" lon="0.7862717222308515"><ele>315.0</ele><time>2026-04-15T16:40:42Z</time></trkpt><trkpt lat="41.143753626312545" lon="0.7862403378941982"><ele>315.0</ele><time>2026-04-15T16:40:44Z</time></trkpt><trkpt lat="41.14382925426833" lon="0.7862000167488026"><ele>315.0</ele><time>2026-04-15T16:40:47Z</time></trkpt><trkpt lat="41.14389240693792" lon="0.7861615874566895"><ele>315.0</ele><time>2026-04-15T16:40:50Z</time></trkpt><trkpt lat="41.143963691971145" lon="0.7861341110744068"><ele>315.0</ele><time>2026-04-15T16:40:53Z</time></trkpt><trkpt lat="41.14404384590407" lon="0.7860922566562119"><ele>314.6</ele><time>2026-04-15T16:40:55Z</time></trkpt><trkpt lat="41.14409517457872" lon="0.7860379003438849"><ele>314.2</ele><time>2026-04-15T16:41:32Z</time></trkpt><trkpt lat="41.14419698325425" lon="0.7859748077313988"><ele>313.8</ele><time>2026-04-15T16:41:34Z</time></trkpt><trkpt lat="41.144267575101225" lon="0.785853095090795"><ele>313.4</ele><time>2026-04-15T16:41:36Z</time></trkpt><trkpt lat="41.14429828126419" lon="0.7857041614251038"><ele>313.0</ele><time>2026-04-15T16:41:38Z</time></trkpt><trkpt lat="41.144328252879326" lon="0.7855903877889682"><ele>313.0</ele><time>2026-04-15T16:41:40Z</time></trkpt><trkpt lat="41.14438780533237" lon="0.7855502743699104"><ele>313.0</ele><time>2026-04-15T16:42:29Z</time></trkpt></trkseg></trk></gpx>